<?xml version="1.0" encoding="UTF-8" standalone="no" ?>
<gpx xmlns="http://www.topografix.com/GPX/1/1" xmlns:xsi="http://www.w3.org/2001/XMLSchema-instance" xsi:schemaLocation="http://www.topografix.com/GPX/1/1 http://www.topografix.com/GPX/1/1/gpx.xsd" version="1.1" creator="VisuGPX - https://www.visugpx.com">
  <metadata>
    <name>Ski de fond au Col de Porte</name>
    <desc><![CDATA[La Piste rouge]]></desc>
  </metadata>
  <trk>
    <name><![CDATA[Ski de fond au Col de Porte_1]]></name>
    <trkseg>
      <trkpt lat="45.29362" lon="5.76897">
        <ele>1358.19</ele>
        <time>2000-01-30T14:18:23.000+01:00</time>
      </trkpt>
      <trkpt lat="45.29362" lon="5.76897">
        <ele>1358.19</ele>
        <time>2000-01-30T14:18:29.000+01:00</time>
      </trkpt>
      <trkpt lat="45.29362" lon="5.76897">
        <ele>1358.19</ele>
        <time>2000-01-30T14:18:36.000+01:00</time>
      </trkpt>
      <trkpt lat="45.29362" lon="5.76897">
        <ele>1358.19</ele>
        <time>2000-01-30T14:18:42.000+01:00</time>
      </trkpt>
      <trkpt lat="45.29362" lon="5.76897">
        <ele>1358.19</ele>
        <time>2000-01-30T14:18:48.000+01:00</time>
      </trkpt>
      <trkpt lat="45.29362" lon="5.76897">
        <ele>1358.19</ele>
        <time>2000-01-30T14:18:54.000+01:00</time>
      </trkpt>
      <trkpt lat="45.29362" lon="5.76897">
        <ele>1358.19</ele>
        <time>2000-01-30T14:19:00.000+01:00</time>
      </trkpt>
      <trkpt lat="45.29384" lon="5.76891">
        <ele>1318.67</ele>
        <time>2000-01-30T14:19:06.000+01:00</time>
      </trkpt>
      <trkpt lat="45.29399" lon="5.76906">
        <ele>1305.97</ele>
        <time>2000-01-30T14:19:12.000+01:00</time>
      </trkpt>
      <trkpt lat="45.29402" lon="5.76911">
        <ele>1294.92</ele>
        <time>2000-01-30T14:19:18.000+01:00</time>
      </trkpt>
      <trkpt lat="45.29402" lon="5.76911">
        <ele>1294.92</ele>
        <time>2000-01-30T14:19:24.000+01:00</time>
      </trkpt>
      <trkpt lat="45.29402" lon="5.76911">
        <ele>1294.92</ele>
        <time>2000-01-30T14:19:30.000+01:00</time>
      </trkpt>
      <trkpt lat="45.29402" lon="5.76911">
        <ele>1294.92</ele>
        <time>2000-01-30T14:19:36.000+01:00</time>
      </trkpt>
      <trkpt lat="45.29402" lon="5.76911">
        <ele>1294.92</ele>
        <time>2000-01-30T14:19:42.000+01:00</time>
      </trkpt>
      <trkpt lat="45.29402" lon="5.76911">
        <ele>1294.92</ele>
        <time>2000-01-30T14:19:48.000+01:00</time>
      </trkpt>
      <trkpt lat="45.29372" lon="5.7694">
        <ele>1297.88</ele>
        <time>2000-01-30T14:19:54.000+01:00</time>
      </trkpt>
      <trkpt lat="45.29369" lon="5.76943">
        <ele>1298.61</ele>
        <time>2000-01-30T14:20:00.000+01:00</time>
      </trkpt>
      <trkpt lat="45.29365" lon="5.76944">
        <ele>1300.31</ele>
        <time>2000-01-30T14:20:06.000+01:00</time>
      </trkpt>
      <trkpt lat="45.29365" lon="5.76945">
        <ele>1301.16</ele>
        <time>2000-01-30T14:20:12.000+01:00</time>
      </trkpt>
      <trkpt lat="45.29365" lon="5.76945">
        <ele>1301.16</ele>
        <time>2000-01-30T14:20:18.000+01:00</time>
      </trkpt>
      <trkpt lat="45.29365" lon="5.76945">
        <ele>1301.16</ele>
        <time>2000-01-30T14:20:24.000+01:00</time>
      </trkpt>
      <trkpt lat="45.29365" lon="5.76945">
        <ele>1301.16</ele>
        <time>2000-01-30T14:20:30.000+01:00</time>
      </trkpt>
      <trkpt lat="45.29365" lon="5.76945">
        <ele>1301.16</ele>
        <time>2000-01-30T14:20:36.000+01:00</time>
      </trkpt>
      <trkpt lat="45.29332" lon="5.76967">
        <ele>1313.83</ele>
        <time>2000-01-30T14:20:42.000+01:00</time>
      </trkpt>
      <trkpt lat="45.2933" lon="5.76969">
        <ele>1316.43</ele>
        <time>2000-01-30T14:20:48.000+01:00</time>
      </trkpt>
      <trkpt lat="45.2933" lon="5.76969">
        <ele>1316.43</ele>
        <time>2000-01-30T14:20:54.000+01:00</time>
      </trkpt>
      <trkpt lat="45.2932" lon="5.76964">
        <ele>1313.08</ele>
        <time>2000-01-30T14:21:00.000+01:00</time>
      </trkpt>
      <trkpt lat="45.29321" lon="5.76964">
        <ele>1315.5</ele>
        <time>2000-01-30T14:21:06.000+01:00</time>
      </trkpt>
      <trkpt lat="45.29316" lon="5.76971">
        <ele>1327.03</ele>
        <time>2000-01-30T14:21:12.000+01:00</time>
      </trkpt>
      <trkpt lat="45.29316" lon="5.76971">
        <ele>1327.03</ele>
        <time>2000-01-30T14:21:18.000+01:00</time>
      </trkpt>
      <trkpt lat="45.29316" lon="5.76971">
        <ele>1327.03</ele>
        <time>2000-01-30T14:21:24.000+01:00</time>
      </trkpt>
      <trkpt lat="45.29316" lon="5.76971">
        <ele>1327.03</ele>
        <time>2000-01-30T14:21:30.000+01:00</time>
      </trkpt>
      <trkpt lat="45.29316" lon="5.76971">
        <ele>1327.03</ele>
        <time>2000-01-30T14:21:36.000+01:00</time>
      </trkpt>
      <trkpt lat="45.29316" lon="5.76971">
        <ele>1327.03</ele>
        <time>2000-01-30T14:21:42.000+01:00</time>
      </trkpt>
      <trkpt lat="45.29316" lon="5.76971">
        <ele>1327.03</ele>
        <time>2000-01-30T14:21:48.000+01:00</time>
      </trkpt>
      <trkpt lat="45.29316" lon="5.76971">
        <ele>1327.03</ele>
        <time>2000-01-30T14:21:54.000+01:00</time>
      </trkpt>
      <trkpt lat="45.29316" lon="5.76971">
        <ele>1327.03</ele>
        <time>2000-01-30T14:22:00.000+01:00</time>
      </trkpt>
      <trkpt lat="45.29279" lon="5.76976">
        <ele>1320.03</ele>
        <time>2000-01-30T14:22:06.000+01:00</time>
      </trkpt>
      <trkpt lat="45.29269" lon="5.76972">
        <ele>1324.52</ele>
        <time>2000-01-30T14:22:12.000+01:00</time>
      </trkpt>
      <trkpt lat="45.29261" lon="5.76962">
        <ele>1321.86</ele>
        <time>2000-01-30T14:22:18.000+01:00</time>
      </trkpt>
      <trkpt lat="45.29257" lon="5.76967">
        <ele>1323.65</ele>
        <time>2000-01-30T14:22:24.000+01:00</time>
      </trkpt>
      <trkpt lat="45.29257" lon="5.76967">
        <ele>1323.65</ele>
        <time>2000-01-30T14:22:30.000+01:00</time>
      </trkpt>
      <trkpt lat="45.29257" lon="5.76967">
        <ele>1323.65</ele>
        <time>2000-01-30T14:22:36.000+01:00</time>
      </trkpt>
      <trkpt lat="45.29257" lon="5.76967">
        <ele>1323.65</ele>
        <time>2000-01-30T14:22:42.000+01:00</time>
      </trkpt>
      <trkpt lat="45.29257" lon="5.76967">
        <ele>1323.65</ele>
        <time>2000-01-30T14:22:48.000+01:00</time>
      </trkpt>
      <trkpt lat="45.29257" lon="5.76967">
        <ele>1323.65</ele>
        <time>2000-01-30T14:22:54.000+01:00</time>
      </trkpt>
      <trkpt lat="45.29281" lon="5.7698">
        <ele>1336.48</ele>
        <time>2000-01-30T14:23:00.000+01:00</time>
      </trkpt>
      <trkpt lat="45.29289" lon="5.76988">
        <ele>1344.64</ele>
        <time>2000-01-30T14:23:06.000+01:00</time>
      </trkpt>
      <trkpt lat="45.2929" lon="5.76998">
        <ele>1352.78</ele>
        <time>2000-01-30T14:23:12.000+01:00</time>
      </trkpt>
      <trkpt lat="45.29296" lon="5.77002">
        <ele>1347.43</ele>
        <time>2000-01-30T14:23:18.000+01:00</time>
      </trkpt>
      <trkpt lat="45.29297" lon="5.77005">
        <ele>1333.25</ele>
        <time>2000-01-30T14:23:24.000+01:00</time>
      </trkpt>
      <trkpt lat="45.29304" lon="5.7701">
        <ele>1332</ele>
        <time>2000-01-30T14:23:30.000+01:00</time>
      </trkpt>
      <trkpt lat="45.29309" lon="5.77019">
        <ele>1328.62</ele>
        <time>2000-01-30T14:23:36.000+01:00</time>
      </trkpt>
      <trkpt lat="45.2931" lon="5.77027">
        <ele>1321.46</ele>
        <time>2000-01-30T14:23:42.000+01:00</time>
      </trkpt>
      <trkpt lat="45.29317" lon="5.77033">
        <ele>1322.75</ele>
        <time>2000-01-30T14:23:47.801+01:00</time>
      </trkpt>
      <trkpt lat="45.29324" lon="5.77043">
        <ele>1321.95</ele>
        <time>2000-01-30T14:23:53.000+01:00</time>
      </trkpt>
      <trkpt lat="45.29321" lon="5.77054">
        <ele>1320.63</ele>
        <time>2000-01-30T14:23:59.000+01:00</time>
      </trkpt>
      <trkpt lat="45.29318" lon="5.7706">
        <ele>1319.13</ele>
        <time>2000-01-30T14:24:05.000+01:00</time>
      </trkpt>
      <trkpt lat="45.29323" lon="5.77071">
        <ele>1317.88</ele>
        <time>2000-01-30T14:24:11.000+01:00</time>
      </trkpt>
      <trkpt lat="45.29325" lon="5.77077">
        <ele>1318.61</ele>
        <time>2000-01-30T14:24:17.000+01:00</time>
      </trkpt>
      <trkpt lat="45.29325" lon="5.77077">
        <ele>1318.61</ele>
        <time>2000-01-30T14:24:22.000+01:00</time>
      </trkpt>
      <trkpt lat="45.29326" lon="5.77096">
        <ele>1315.51</ele>
        <time>2000-01-30T14:24:28.000+01:00</time>
      </trkpt>
      <trkpt lat="45.29327" lon="5.771">
        <ele>1315.2</ele>
        <time>2000-01-30T14:24:34.000+01:00</time>
      </trkpt>
      <trkpt lat="45.29333" lon="5.77114">
        <ele>1322.46</ele>
        <time>2000-01-30T14:24:40.000+01:00</time>
      </trkpt>
      <trkpt lat="45.29336" lon="5.77122">
        <ele>1322.9</ele>
        <time>2000-01-30T14:24:46.001+01:00</time>
      </trkpt>
      <trkpt lat="45.29337" lon="5.77128">
        <ele>1321.12</ele>
        <time>2000-01-30T14:24:51.000+01:00</time>
      </trkpt>
      <trkpt lat="45.29337" lon="5.77138">
        <ele>1318.33</ele>
        <time>2000-01-30T14:24:57.000+01:00</time>
      </trkpt>
      <trkpt lat="45.29336" lon="5.77147">
        <ele>1316.36</ele>
        <time>2000-01-30T14:25:03.000+01:00</time>
      </trkpt>
      <trkpt lat="45.29345" lon="5.77153">
        <ele>1314.12</ele>
        <time>2000-01-30T14:25:08.000+01:00</time>
      </trkpt>
      <trkpt lat="45.29338" lon="5.77164">
        <ele>1311.71</ele>
        <time>2000-01-30T14:25:14.000+01:00</time>
      </trkpt>
      <trkpt lat="45.29338" lon="5.77164">
        <ele>1311.71</ele>
        <time>2000-01-30T14:25:20.000+01:00</time>
      </trkpt>
      <trkpt lat="45.2933" lon="5.77185">
        <ele>1313.16</ele>
        <time>2000-01-30T14:25:26.000+01:00</time>
      </trkpt>
      <trkpt lat="45.29329" lon="5.77196">
        <ele>1313.18</ele>
        <time>2000-01-30T14:25:32.000+01:00</time>
      </trkpt>
      <trkpt lat="45.29331" lon="5.77206">
        <ele>1316.21</ele>
        <time>2000-01-30T14:25:38.000+01:00</time>
      </trkpt>
      <trkpt lat="45.29331" lon="5.77206">
        <ele>1316.21</ele>
        <time>2000-01-30T14:25:44.000+01:00</time>
      </trkpt>
      <trkpt lat="45.2934" lon="5.77218">
        <ele>1316.3</ele>
        <time>2000-01-30T14:25:50.001+01:00</time>
      </trkpt>
      <trkpt lat="45.29344" lon="5.77228">
        <ele>1315.04</ele>
        <time>2000-01-30T14:25:56.000+01:00</time>
      </trkpt>
      <trkpt lat="45.29351" lon="5.77239">
        <ele>1320.65</ele>
        <time>2000-01-30T14:26:01.000+01:00</time>
      </trkpt>
      <trkpt lat="45.29356" lon="5.77241">
        <ele>1334.64</ele>
        <time>2000-01-30T14:26:07.000+01:00</time>
      </trkpt>
      <trkpt lat="45.2936" lon="5.77251">
        <ele>1345.08</ele>
        <time>2000-01-30T14:26:13.000+01:00</time>
      </trkpt>
      <trkpt lat="45.29369" lon="5.77257">
        <ele>1351.74</ele>
        <time>2000-01-30T14:26:19.000+01:00</time>
      </trkpt>
      <trkpt lat="45.29379" lon="5.7726">
        <ele>1354.71</ele>
        <time>2000-01-30T14:26:25.000+01:00</time>
      </trkpt>
      <trkpt lat="45.29382" lon="5.77266">
        <ele>1351.58</ele>
        <time>2000-01-30T14:26:31.000+01:00</time>
      </trkpt>
      <trkpt lat="45.2938" lon="5.77269">
        <ele>1346.57</ele>
        <time>2000-01-30T14:26:37.000+01:00</time>
      </trkpt>
      <trkpt lat="45.29389" lon="5.77276">
        <ele>1344.62</ele>
        <time>2000-01-30T14:26:43.000+01:00</time>
      </trkpt>
      <trkpt lat="45.2939" lon="5.77272">
        <ele>1345.43</ele>
        <time>2000-01-30T14:26:49.000+01:00</time>
      </trkpt>
      <trkpt lat="45.2939" lon="5.77272">
        <ele>1345.43</ele>
        <time>2000-01-30T14:26:55.000+01:00</time>
      </trkpt>
      <trkpt lat="45.29407" lon="5.77266">
        <ele>1354.4</ele>
        <time>2000-01-30T14:27:01.000+01:00</time>
      </trkpt>
      <trkpt lat="45.29417" lon="5.77269">
        <ele>1351.36</ele>
        <time>2000-01-30T14:27:07.000+01:00</time>
      </trkpt>
      <trkpt lat="45.29413" lon="5.77268">
        <ele>1351.78</ele>
        <time>2000-01-30T14:27:13.000+01:00</time>
      </trkpt>
      <trkpt lat="45.29413" lon="5.77268">
        <ele>1351.78</ele>
        <time>2000-01-30T14:27:19.000+01:00</time>
      </trkpt>
      <trkpt lat="45.29413" lon="5.77268">
        <ele>1351.78</ele>
        <time>2000-01-30T14:27:25.000+01:00</time>
      </trkpt>
      <trkpt lat="45.29413" lon="5.77268">
        <ele>1351.78</ele>
        <time>2000-01-30T14:27:31.000+01:00</time>
      </trkpt>
      <trkpt lat="45.29456" lon="5.7728">
        <ele>1350.23</ele>
        <time>2000-01-30T14:27:37.000+01:00</time>
      </trkpt>
      <trkpt lat="45.29469" lon="5.77284">
        <ele>1344.15</ele>
        <time>2000-01-30T14:27:43.000+01:00</time>
      </trkpt>
      <trkpt lat="45.2947" lon="5.77283">
        <ele>1343.53</ele>
        <time>2000-01-30T14:27:49.000+01:00</time>
      </trkpt>
      <trkpt lat="45.2947" lon="5.77283">
        <ele>1343.53</ele>
        <time>2000-01-30T14:27:55.000+01:00</time>
      </trkpt>
      <trkpt lat="45.2947" lon="5.77283">
        <ele>1343.53</ele>
        <time>2000-01-30T14:28:01.000+01:00</time>
      </trkpt>
      <trkpt lat="45.2947" lon="5.77283">
        <ele>1343.53</ele>
        <time>2000-01-30T14:28:07.000+01:00</time>
      </trkpt>
      <trkpt lat="45.2947" lon="5.77283">
        <ele>1343.53</ele>
        <time>2000-01-30T14:28:13.000+01:00</time>
      </trkpt>
      <trkpt lat="45.2947" lon="5.77283">
        <ele>1343.53</ele>
        <time>2000-01-30T14:28:19.000+01:00</time>
      </trkpt>
      <trkpt lat="45.2947" lon="5.77283">
        <ele>1343.53</ele>
        <time>2000-01-30T14:28:25.000+01:00</time>
      </trkpt>
      <trkpt lat="45.29408" lon="5.77314">
        <ele>1339.47</ele>
        <time>2000-01-30T14:28:31.000+01:00</time>
      </trkpt>
      <trkpt lat="45.29402" lon="5.77318">
        <ele>1339.32</ele>
        <time>2000-01-30T14:28:37.000+01:00</time>
      </trkpt>
      <trkpt lat="45.29376" lon="5.77315">
        <ele>1331.47</ele>
        <time>2000-01-30T14:28:43.000+01:00</time>
      </trkpt>
      <trkpt lat="45.29373" lon="5.77315">
        <ele>1334.71</ele>
        <time>2000-01-30T14:28:49.000+01:00</time>
      </trkpt>
      <trkpt lat="45.29373" lon="5.77315">
        <ele>1334.71</ele>
        <time>2000-01-30T14:28:55.000+01:00</time>
      </trkpt>
      <trkpt lat="45.29373" lon="5.77315">
        <ele>1334.71</ele>
        <time>2000-01-30T14:29:01.000+01:00</time>
      </trkpt>
      <trkpt lat="45.29373" lon="5.77315">
        <ele>1334.71</ele>
        <time>2000-01-30T14:29:07.000+01:00</time>
      </trkpt>
      <trkpt lat="45.29373" lon="5.77315">
        <ele>1334.71</ele>
        <time>2000-01-30T14:29:13.000+01:00</time>
      </trkpt>
      <trkpt lat="45.29373" lon="5.77315">
        <ele>1334.71</ele>
        <time>2000-01-30T14:29:19.000+01:00</time>
      </trkpt>
      <trkpt lat="45.29373" lon="5.77315">
        <ele>1334.71</ele>
        <time>2000-01-30T14:29:25.000+01:00</time>
      </trkpt>
      <trkpt lat="45.29373" lon="5.77315">
        <ele>1334.71</ele>
        <time>2000-01-30T14:29:31.000+01:00</time>
      </trkpt>
      <trkpt lat="45.29373" lon="5.77315">
        <ele>1334.71</ele>
        <time>2000-01-30T14:29:37.000+01:00</time>
      </trkpt>
      <trkpt lat="45.29347" lon="5.7733">
        <ele>1383.88</ele>
        <time>2000-01-30T14:29:43.000+01:00</time>
      </trkpt>
      <trkpt lat="45.29344" lon="5.77332">
        <ele>1380.31</ele>
        <time>2000-01-30T14:29:49.000+01:00</time>
      </trkpt>
      <trkpt lat="45.29328" lon="5.77335">
        <ele>1378.66</ele>
        <time>2000-01-30T14:29:55.000+01:00</time>
      </trkpt>
      <trkpt lat="45.29328" lon="5.77336">
        <ele>1375.69</ele>
        <time>2000-01-30T14:30:01.000+01:00</time>
      </trkpt>
      <trkpt lat="45.29323" lon="5.77336">
        <ele>1374.33</ele>
        <time>2000-01-30T14:30:07.000+01:00</time>
      </trkpt>
      <trkpt lat="45.29317" lon="5.77332">
        <ele>1373.76</ele>
        <time>2000-01-30T14:30:13.000+01:00</time>
      </trkpt>
      <trkpt lat="45.29316" lon="5.77331">
        <ele>1378.76</ele>
        <time>2000-01-30T14:30:19.000+01:00</time>
      </trkpt>
      <trkpt lat="45.29297" lon="5.77321">
        <ele>1362.42</ele>
        <time>2000-01-30T14:30:25.000+01:00</time>
      </trkpt>
      <trkpt lat="45.2929" lon="5.77315">
        <ele>1357.83</ele>
        <time>2000-01-30T14:30:31.000+01:00</time>
      </trkpt>
      <trkpt lat="45.2929" lon="5.77315">
        <ele>1357.83</ele>
        <time>2000-01-30T14:30:37.000+01:00</time>
      </trkpt>
      <trkpt lat="45.29273" lon="5.77301">
        <ele>1342.83</ele>
        <time>2000-01-30T14:30:43.000+01:00</time>
      </trkpt>
      <trkpt lat="45.29272" lon="5.77297">
        <ele>1340.75</ele>
        <time>2000-01-30T14:30:49.000+01:00</time>
      </trkpt>
      <trkpt lat="45.29272" lon="5.77297">
        <ele>1340.75</ele>
        <time>2000-01-30T14:30:55.000+01:00</time>
      </trkpt>
      <trkpt lat="45.29272" lon="5.77297">
        <ele>1340.75</ele>
        <time>2000-01-30T14:31:01.000+01:00</time>
      </trkpt>
      <trkpt lat="45.29272" lon="5.77297">
        <ele>1340.75</ele>
        <time>2000-01-30T14:31:07.000+01:00</time>
      </trkpt>
      <trkpt lat="45.29272" lon="5.77297">
        <ele>1340.75</ele>
        <time>2000-01-30T14:31:13.000+01:00</time>
      </trkpt>
      <trkpt lat="45.29272" lon="5.77297">
        <ele>1340.75</ele>
        <time>2000-01-30T14:31:19.000+01:00</time>
      </trkpt>
      <trkpt lat="45.29272" lon="5.77297">
        <ele>1340.75</ele>
        <time>2000-01-30T14:31:25.000+01:00</time>
      </trkpt>
      <trkpt lat="45.29272" lon="5.77297">
        <ele>1340.75</ele>
        <time>2000-01-30T14:31:31.000+01:00</time>
      </trkpt>
      <trkpt lat="45.29265" lon="5.77261">
        <ele>1356.98</ele>
        <time>2000-01-30T14:31:37.000+01:00</time>
      </trkpt>
      <trkpt lat="45.29262" lon="5.77257">
        <ele>1357.81</ele>
        <time>2000-01-30T14:31:43.000+01:00</time>
      </trkpt>
      <trkpt lat="45.29262" lon="5.77248">
        <ele>1354.01</ele>
        <time>2000-01-30T14:31:49.000+01:00</time>
      </trkpt>
      <trkpt lat="45.29254" lon="5.77244">
        <ele>1357.22</ele>
        <time>2000-01-30T14:31:55.000+01:00</time>
      </trkpt>
      <trkpt lat="45.2925" lon="5.77244">
        <ele>1358.39</ele>
        <time>2000-01-30T14:32:01.000+01:00</time>
      </trkpt>
      <trkpt lat="45.29238" lon="5.77235">
        <ele>1357.71</ele>
        <time>2000-01-30T14:32:07.000+01:00</time>
      </trkpt>
      <trkpt lat="45.29233" lon="5.77227">
        <ele>1351.61</ele>
        <time>2000-01-30T14:32:13.000+01:00</time>
      </trkpt>
      <trkpt lat="45.29216" lon="5.77223">
        <ele>1352.09</ele>
        <time>2000-01-30T14:32:19.000+01:00</time>
      </trkpt>
      <trkpt lat="45.29216" lon="5.77222">
        <ele>1352.83</ele>
        <time>2000-01-30T14:32:25.000+01:00</time>
      </trkpt>
      <trkpt lat="45.29215" lon="5.77212">
        <ele>1354.07</ele>
        <time>2000-01-30T14:32:31.000+01:00</time>
      </trkpt>
      <trkpt lat="45.29212" lon="5.77202">
        <ele>1356.39</ele>
        <time>2000-01-30T14:32:37.000+01:00</time>
      </trkpt>
      <trkpt lat="45.29205" lon="5.77192">
        <ele>1354.6</ele>
        <time>2000-01-30T14:32:43.000+01:00</time>
      </trkpt>
      <trkpt lat="45.29208" lon="5.7719">
        <ele>1357.9</ele>
        <time>2000-01-30T14:32:49.000+01:00</time>
      </trkpt>
      <trkpt lat="45.29196" lon="5.77186">
        <ele>1358.15</ele>
        <time>2000-01-30T14:32:55.003+01:00</time>
      </trkpt>
      <trkpt lat="45.2919" lon="5.77179">
        <ele>1354.54</ele>
        <time>2000-01-30T14:33:00.000+01:00</time>
      </trkpt>
      <trkpt lat="45.2919" lon="5.77179">
        <ele>1354.54</ele>
        <time>2000-01-30T14:33:06.000+01:00</time>
      </trkpt>
      <trkpt lat="45.29172" lon="5.77164">
        <ele>1351.82</ele>
        <time>2000-01-30T14:33:12.000+01:00</time>
      </trkpt>
      <trkpt lat="45.29162" lon="5.77159">
        <ele>1354.46</ele>
        <time>2000-01-30T14:33:18.000+01:00</time>
      </trkpt>
      <trkpt lat="45.29161" lon="5.77148">
        <ele>1355.08</ele>
        <time>2000-01-30T14:33:24.000+01:00</time>
      </trkpt>
      <trkpt lat="45.29148" lon="5.77137">
        <ele>1356.57</ele>
        <time>2000-01-30T14:33:30.000+01:00</time>
      </trkpt>
      <trkpt lat="45.29137" lon="5.77126">
        <ele>1356.34</ele>
        <time>2000-01-30T14:33:36.000+01:00</time>
      </trkpt>
      <trkpt lat="45.29118" lon="5.77111">
        <ele>1352.28</ele>
        <time>2000-01-30T14:33:42.000+01:00</time>
      </trkpt>
      <trkpt lat="45.29104" lon="5.77104">
        <ele>1353.96</ele>
        <time>2000-01-30T14:33:48.000+01:00</time>
      </trkpt>
      <trkpt lat="45.29093" lon="5.77104">
        <ele>1347.11</ele>
        <time>2000-01-30T14:33:54.000+01:00</time>
      </trkpt>
      <trkpt lat="45.29084" lon="5.77107">
        <ele>1346.98</ele>
        <time>2000-01-30T14:34:00.000+01:00</time>
      </trkpt>
      <trkpt lat="45.29073" lon="5.77102">
        <ele>1347.7</ele>
        <time>2000-01-30T14:34:06.000+01:00</time>
      </trkpt>
      <trkpt lat="45.29074" lon="5.77099">
        <ele>1355.66</ele>
        <time>2000-01-30T14:34:12.000+01:00</time>
      </trkpt>
      <trkpt lat="45.29077" lon="5.771">
        <ele>1361.16</ele>
        <time>2000-01-30T14:34:18.000+01:00</time>
      </trkpt>
      <trkpt lat="45.29058" lon="5.77098">
        <ele>1357.28</ele>
        <time>2000-01-30T14:34:24.000+01:00</time>
      </trkpt>
      <trkpt lat="45.29044" lon="5.77106">
        <ele>1351.91</ele>
        <time>2000-01-30T14:34:30.000+01:00</time>
      </trkpt>
      <trkpt lat="45.29028" lon="5.77113">
        <ele>1351.47</ele>
        <time>2000-01-30T14:34:36.000+01:00</time>
      </trkpt>
      <trkpt lat="45.29008" lon="5.77103">
        <ele>1354.25</ele>
        <time>2000-01-30T14:34:42.000+01:00</time>
      </trkpt>
      <trkpt lat="45.28976" lon="5.77083">
        <ele>1350.28</ele>
        <time>2000-01-30T14:34:48.000+01:00</time>
      </trkpt>
      <trkpt lat="45.2897" lon="5.77077">
        <ele>1345.4</ele>
        <time>2000-01-30T14:34:54.000+01:00</time>
      </trkpt>
      <trkpt lat="45.28958" lon="5.7707">
        <ele>1343.78</ele>
        <time>2000-01-30T14:35:00.000+01:00</time>
      </trkpt>
      <trkpt lat="45.28959" lon="5.77067">
        <ele>1349.57</ele>
        <time>2000-01-30T14:35:06.000+01:00</time>
      </trkpt>
      <trkpt lat="45.28942" lon="5.77064">
        <ele>1346.88</ele>
        <time>2000-01-30T14:35:12.000+01:00</time>
      </trkpt>
      <trkpt lat="45.28932" lon="5.77057">
        <ele>1340.4</ele>
        <time>2000-01-30T14:35:18.000+01:00</time>
      </trkpt>
      <trkpt lat="45.2893" lon="5.77056">
        <ele>1340.28</ele>
        <time>2000-01-30T14:35:24.000+01:00</time>
      </trkpt>
      <trkpt lat="45.2893" lon="5.77054">
        <ele>1337.92</ele>
        <time>2000-01-30T14:35:30.000+01:00</time>
      </trkpt>
      <trkpt lat="45.28919" lon="5.77044">
        <ele>1341.23</ele>
        <time>2000-01-30T14:35:36.000+01:00</time>
      </trkpt>
      <trkpt lat="45.28915" lon="5.77031">
        <ele>1338.31</ele>
        <time>2000-01-30T14:35:42.000+01:00</time>
      </trkpt>
      <trkpt lat="45.28914" lon="5.77029">
        <ele>1340.01</ele>
        <time>2000-01-30T14:35:48.000+01:00</time>
      </trkpt>
      <trkpt lat="45.2891" lon="5.77012">
        <ele>1341.52</ele>
        <time>2000-01-30T14:35:54.000+01:00</time>
      </trkpt>
      <trkpt lat="45.28901" lon="5.76995">
        <ele>1330.3</ele>
        <time>2000-01-30T14:36:00.000+01:00</time>
      </trkpt>
      <trkpt lat="45.28885" lon="5.76975">
        <ele>1326.5</ele>
        <time>2000-01-30T14:36:06.000+01:00</time>
      </trkpt>
      <trkpt lat="45.28879" lon="5.76958">
        <ele>1330.08</ele>
        <time>2000-01-30T14:36:12.000+01:00</time>
      </trkpt>
      <trkpt lat="45.28873" lon="5.76927">
        <ele>1327.03</ele>
        <time>2000-01-30T14:36:18.000+01:00</time>
      </trkpt>
      <trkpt lat="45.28854" lon="5.76869">
        <ele>1326.98</ele>
        <time>2000-01-30T14:36:24.000+01:00</time>
      </trkpt>
      <trkpt lat="45.28849" lon="5.76823">
        <ele>1324.42</ele>
        <time>2000-01-30T14:36:30.000+01:00</time>
      </trkpt>
      <trkpt lat="45.28854" lon="5.76811">
        <ele>1324.34</ele>
        <time>2000-01-30T14:36:36.000+01:00</time>
      </trkpt>
      <trkpt lat="45.2885" lon="5.7681">
        <ele>1326.22</ele>
        <time>2000-01-30T14:36:42.000+01:00</time>
      </trkpt>
      <trkpt lat="45.2885" lon="5.7681">
        <ele>1326.22</ele>
        <time>2000-01-30T14:36:48.000+01:00</time>
      </trkpt>
      <trkpt lat="45.2885" lon="5.7681">
        <ele>1326.22</ele>
        <time>2000-01-30T14:36:54.000+01:00</time>
      </trkpt>
      <trkpt lat="45.2885" lon="5.7681">
        <ele>1326.22</ele>
        <time>2000-01-30T14:37:00.000+01:00</time>
      </trkpt>
      <trkpt lat="45.2885" lon="5.7681">
        <ele>1326.22</ele>
        <time>2000-01-30T14:37:06.000+01:00</time>
      </trkpt>
      <trkpt lat="45.2885" lon="5.7681">
        <ele>1326.22</ele>
        <time>2000-01-30T14:37:12.000+01:00</time>
      </trkpt>
      <trkpt lat="45.2885" lon="5.7681">
        <ele>1326.22</ele>
        <time>2000-01-30T14:37:18.000+01:00</time>
      </trkpt>
      <trkpt lat="45.2885" lon="5.7681">
        <ele>1326.22</ele>
        <time>2000-01-30T14:37:24.000+01:00</time>
      </trkpt>
      <trkpt lat="45.2885" lon="5.7681">
        <ele>1326.22</ele>
        <time>2000-01-30T14:37:30.000+01:00</time>
      </trkpt>
      <trkpt lat="45.2885" lon="5.7681">
        <ele>1326.22</ele>
        <time>2000-01-30T14:37:36.000+01:00</time>
      </trkpt>
      <trkpt lat="45.2885" lon="5.7681">
        <ele>1326.22</ele>
        <time>2000-01-30T14:37:42.000+01:00</time>
      </trkpt>
      <trkpt lat="45.2885" lon="5.7681">
        <ele>1326.22</ele>
        <time>2000-01-30T14:37:48.000+01:00</time>
      </trkpt>
      <trkpt lat="45.2885" lon="5.7681">
        <ele>1326.22</ele>
        <time>2000-01-30T14:37:54.000+01:00</time>
      </trkpt>
      <trkpt lat="45.2885" lon="5.7681">
        <ele>1326.22</ele>
        <time>2000-01-30T14:38:00.000+01:00</time>
      </trkpt>
      <trkpt lat="45.28861" lon="5.76824">
        <ele>1320.2</ele>
        <time>2000-01-30T14:38:06.000+01:00</time>
      </trkpt>
      <trkpt lat="45.28861" lon="5.76824">
        <ele>1320.2</ele>
        <time>2000-01-30T14:38:12.000+01:00</time>
      </trkpt>
      <trkpt lat="45.28861" lon="5.76824">
        <ele>1320.2</ele>
        <time>2000-01-30T14:38:18.000+01:00</time>
      </trkpt>
      <trkpt lat="45.28861" lon="5.76824">
        <ele>1320.2</ele>
        <time>2000-01-30T14:38:24.000+01:00</time>
      </trkpt>
      <trkpt lat="45.28861" lon="5.76824">
        <ele>1320.2</ele>
        <time>2000-01-30T14:38:30.000+01:00</time>
      </trkpt>
      <trkpt lat="45.28861" lon="5.76824">
        <ele>1320.2</ele>
        <time>2000-01-30T14:38:36.000+01:00</time>
      </trkpt>
      <trkpt lat="45.28861" lon="5.76824">
        <ele>1320.2</ele>
        <time>2000-01-30T14:38:42.000+01:00</time>
      </trkpt>
      <trkpt lat="45.28887" lon="5.7681">
        <ele>1348.43</ele>
        <time>2000-01-30T14:38:48.000+01:00</time>
      </trkpt>
      <trkpt lat="45.28894" lon="5.76813">
        <ele>1343.27</ele>
        <time>2000-01-30T14:38:54.000+01:00</time>
      </trkpt>
      <trkpt lat="45.28893" lon="5.76814">
        <ele>1343.96</ele>
        <time>2000-01-30T14:39:00.000+01:00</time>
      </trkpt>
      <trkpt lat="45.28893" lon="5.76814">
        <ele>1343.96</ele>
        <time>2000-01-30T14:39:06.000+01:00</time>
      </trkpt>
      <trkpt lat="45.28893" lon="5.76814">
        <ele>1343.96</ele>
        <time>2000-01-30T14:39:12.000+01:00</time>
      </trkpt>
      <trkpt lat="45.28893" lon="5.76814">
        <ele>1343.96</ele>
        <time>2000-01-30T14:39:18.000+01:00</time>
      </trkpt>
      <trkpt lat="45.28879" lon="5.76824">
        <ele>1344.41</ele>
        <time>2000-01-30T14:39:24.000+01:00</time>
      </trkpt>
      <trkpt lat="45.28892" lon="5.76836">
        <ele>1338.46</ele>
        <time>2000-01-30T14:39:30.000+01:00</time>
      </trkpt>
      <trkpt lat="45.28919" lon="5.76852">
        <ele>1333.93</ele>
        <time>2000-01-30T14:39:36.000+01:00</time>
      </trkpt>
      <trkpt lat="45.28947" lon="5.76845">
        <ele>1338.01</ele>
        <time>2000-01-30T14:39:42.000+01:00</time>
      </trkpt>
      <trkpt lat="45.28967" lon="5.76838">
        <ele>1328.58</ele>
        <time>2000-01-30T14:39:48.000+01:00</time>
      </trkpt>
      <trkpt lat="45.28983" lon="5.76828">
        <ele>1327.62</ele>
        <time>2000-01-30T14:39:54.000+01:00</time>
      </trkpt>
      <trkpt lat="45.29002" lon="5.76821">
        <ele>1328.05</ele>
        <time>2000-01-30T14:39:59.801+01:00</time>
      </trkpt>
      <trkpt lat="45.29024" lon="5.76817">
        <ele>1327.33</ele>
        <time>2000-01-30T14:40:05.000+01:00</time>
      </trkpt>
      <trkpt lat="45.29044" lon="5.76817">
        <ele>1325.72</ele>
        <time>2000-01-30T14:40:11.000+01:00</time>
      </trkpt>
      <trkpt lat="45.29051" lon="5.76816">
        <ele>1325.59</ele>
        <time>2000-01-30T14:40:17.000+01:00</time>
      </trkpt>
      <trkpt lat="45.29058" lon="5.76814">
        <ele>1326.37</ele>
        <time>2000-01-30T14:40:23.000+01:00</time>
      </trkpt>
      <trkpt lat="45.29066" lon="5.76823">
        <ele>1323.43</ele>
        <time>2000-01-30T14:40:28.000+01:00</time>
      </trkpt>
      <trkpt lat="45.29069" lon="5.76845">
        <ele>1317.54</ele>
        <time>2000-01-30T14:40:34.000+01:00</time>
      </trkpt>
      <trkpt lat="45.2907" lon="5.76853">
        <ele>1313.29</ele>
        <time>2000-01-30T14:40:40.000+01:00</time>
      </trkpt>
      <trkpt lat="45.29069" lon="5.76857">
        <ele>1309.82</ele>
        <time>2000-01-30T14:40:45.800+01:00</time>
      </trkpt>
      <trkpt lat="45.29069" lon="5.76857">
        <ele>1309.82</ele>
        <time>2000-01-30T14:40:51.000+01:00</time>
      </trkpt>
      <trkpt lat="45.29076" lon="5.76868">
        <ele>1307.91</ele>
        <time>2000-01-30T14:40:57.000+01:00</time>
      </trkpt>
      <trkpt lat="45.29077" lon="5.7687">
        <ele>1306.57</ele>
        <time>2000-01-30T14:41:03.000+01:00</time>
      </trkpt>
      <trkpt lat="45.29077" lon="5.7687">
        <ele>1306.57</ele>
        <time>2000-01-30T14:41:09.000+01:00</time>
      </trkpt>
      <trkpt lat="45.29095" lon="5.7687">
        <ele>1309.23</ele>
        <time>2000-01-30T14:41:15.000+01:00</time>
      </trkpt>
      <trkpt lat="45.29106" lon="5.76872">
        <ele>1310.06</ele>
        <time>2000-01-30T14:41:20.000+01:00</time>
      </trkpt>
      <trkpt lat="45.29135" lon="5.76869">
        <ele>1304.73</ele>
        <time>2000-01-30T14:41:26.000+01:00</time>
      </trkpt>
      <trkpt lat="45.29131" lon="5.76871">
        <ele>1304.52</ele>
        <time>2000-01-30T14:41:32.000+01:00</time>
      </trkpt>
      <trkpt lat="45.29138" lon="5.76871">
        <ele>1314.63</ele>
        <time>2000-01-30T14:41:38.000+01:00</time>
      </trkpt>
      <trkpt lat="45.29145" lon="5.76878">
        <ele>1311.09</ele>
        <time>2000-01-30T14:41:44.000+01:00</time>
      </trkpt>
      <trkpt lat="45.29168" lon="5.76889">
        <ele>1311.4</ele>
        <time>2000-01-30T14:41:50.001+01:00</time>
      </trkpt>
      <trkpt lat="45.29192" lon="5.76901">
        <ele>1309.86</ele>
        <time>2000-01-30T14:41:55.000+01:00</time>
      </trkpt>
      <trkpt lat="45.29214" lon="5.76914">
        <ele>1305.78</ele>
        <time>2000-01-30T14:42:01.000+01:00</time>
      </trkpt>
      <trkpt lat="45.29213" lon="5.76924">
        <ele>1300.21</ele>
        <time>2000-01-30T14:42:07.000+01:00</time>
      </trkpt>
      <trkpt lat="45.29218" lon="5.76933">
        <ele>1302.92</ele>
        <time>2000-01-30T14:42:13.000+01:00</time>
      </trkpt>
      <trkpt lat="45.29217" lon="5.76934">
        <ele>1301.72</ele>
        <time>2000-01-30T14:42:19.000+01:00</time>
      </trkpt>
      <trkpt lat="45.29217" lon="5.76934">
        <ele>1301.72</ele>
        <time>2000-01-30T14:42:25.000+01:00</time>
      </trkpt>
      <trkpt lat="45.29217" lon="5.7695">
        <ele>1292.25</ele>
        <time>2000-01-30T14:42:30.800+01:00</time>
      </trkpt>
      <trkpt lat="45.29218" lon="5.76948">
        <ele>1290.81</ele>
        <time>2000-01-30T14:42:36.000+01:00</time>
      </trkpt>
      <trkpt lat="45.29228" lon="5.76956">
        <ele>1295.35</ele>
        <time>2000-01-30T14:42:42.000+01:00</time>
      </trkpt>
      <trkpt lat="45.29237" lon="5.76964">
        <ele>1297.32</ele>
        <time>2000-01-30T14:42:48.001+01:00</time>
      </trkpt>
      <trkpt lat="45.29243" lon="5.7697">
        <ele>1298.02</ele>
        <time>2000-01-30T14:42:54.001+01:00</time>
      </trkpt>
      <trkpt lat="45.29243" lon="5.76971">
        <ele>1298.31</ele>
        <time>2000-01-30T14:42:59.000+01:00</time>
      </trkpt>
      <trkpt lat="45.29243" lon="5.76971">
        <ele>1298.31</ele>
        <time>2000-01-30T14:43:05.000+01:00</time>
      </trkpt>
      <trkpt lat="45.29262" lon="5.76983">
        <ele>1306.04</ele>
        <time>2000-01-30T14:43:11.001+01:00</time>
      </trkpt>
      <trkpt lat="45.29271" lon="5.76989">
        <ele>1307.52</ele>
        <time>2000-01-30T14:43:17.001+01:00</time>
      </trkpt>
      <trkpt lat="45.29278" lon="5.76994">
        <ele>1308.42</ele>
        <time>2000-01-30T14:43:22.801+01:00</time>
      </trkpt>
      <trkpt lat="45.29283" lon="5.77002">
        <ele>1306.76</ele>
        <time>2000-01-30T14:43:28.000+01:00</time>
      </trkpt>
      <trkpt lat="45.29285" lon="5.77012">
        <ele>1308.77</ele>
        <time>2000-01-30T14:43:34.000+01:00</time>
      </trkpt>
      <trkpt lat="45.29289" lon="5.77017">
        <ele>1309.85</ele>
        <time>2000-01-30T14:43:40.000+01:00</time>
      </trkpt>
      <trkpt lat="45.293" lon="5.77029">
        <ele>1310.89</ele>
        <time>2000-01-30T14:43:46.000+01:00</time>
      </trkpt>
      <trkpt lat="45.29302" lon="5.77038">
        <ele>1308.27</ele>
        <time>2000-01-30T14:43:52.002+01:00</time>
      </trkpt>
      <trkpt lat="45.29305" lon="5.77044">
        <ele>1308.12</ele>
        <time>2000-01-30T14:43:57.000+01:00</time>
      </trkpt>
      <trkpt lat="45.29309" lon="5.77058">
        <ele>1312.91</ele>
        <time>2000-01-30T14:44:03.000+01:00</time>
      </trkpt>
      <trkpt lat="45.29313" lon="5.77065">
        <ele>1314.33</ele>
        <time>2000-01-30T14:44:09.000+01:00</time>
      </trkpt>
      <trkpt lat="45.29314" lon="5.77076">
        <ele>1308.12</ele>
        <time>2000-01-30T14:44:15.002+01:00</time>
      </trkpt>
      <trkpt lat="45.29319" lon="5.77082">
        <ele>1307.15</ele>
        <time>2000-01-30T14:44:20.000+01:00</time>
      </trkpt>
      <trkpt lat="45.29319" lon="5.7709">
        <ele>1310.16</ele>
        <time>2000-01-30T14:44:26.000+01:00</time>
      </trkpt>
      <trkpt lat="45.29318" lon="5.77101">
        <ele>1310.17</ele>
        <time>2000-01-30T14:44:32.000+01:00</time>
      </trkpt>
      <trkpt lat="45.2933" lon="5.7711">
        <ele>1321.29</ele>
        <time>2000-01-30T14:44:38.000+01:00</time>
      </trkpt>
      <trkpt lat="45.29329" lon="5.77119">
        <ele>1319.21</ele>
        <time>2000-01-30T14:44:44.000+01:00</time>
      </trkpt>
      <trkpt lat="45.29332" lon="5.77129">
        <ele>1319.77</ele>
        <time>2000-01-30T14:44:50.000+01:00</time>
      </trkpt>
      <trkpt lat="45.29335" lon="5.77141">
        <ele>1321.15</ele>
        <time>2000-01-30T14:44:55.000+01:00</time>
      </trkpt>
      <trkpt lat="45.29333" lon="5.7715">
        <ele>1319.9</ele>
        <time>2000-01-30T14:45:01.000+01:00</time>
      </trkpt>
      <trkpt lat="45.29341" lon="5.7716">
        <ele>1325.81</ele>
        <time>2000-01-30T14:45:07.000+01:00</time>
      </trkpt>
      <trkpt lat="45.29337" lon="5.77168">
        <ele>1326.26</ele>
        <time>2000-01-30T14:45:13.000+01:00</time>
      </trkpt>
      <trkpt lat="45.29337" lon="5.77172">
        <ele>1325.49</ele>
        <time>2000-01-30T14:45:19.000+01:00</time>
      </trkpt>
      <trkpt lat="45.29337" lon="5.77172">
        <ele>1325.49</ele>
        <time>2000-01-30T14:45:25.000+01:00</time>
      </trkpt>
      <trkpt lat="45.29331" lon="5.77191">
        <ele>1321.25</ele>
        <time>2000-01-30T14:45:31.000+01:00</time>
      </trkpt>
      <trkpt lat="45.2933" lon="5.77203">
        <ele>1317.64</ele>
        <time>2000-01-30T14:45:37.000+01:00</time>
      </trkpt>
      <trkpt lat="45.29329" lon="5.77207">
        <ele>1315.32</ele>
        <time>2000-01-30T14:45:43.000+01:00</time>
      </trkpt>
      <trkpt lat="45.29329" lon="5.77207">
        <ele>1315.32</ele>
        <time>2000-01-30T14:45:49.000+01:00</time>
      </trkpt>
      <trkpt lat="45.29326" lon="5.77227">
        <ele>1317.43</ele>
        <time>2000-01-30T14:45:55.000+01:00</time>
      </trkpt>
      <trkpt lat="45.29329" lon="5.77241">
        <ele>1315.81</ele>
        <time>2000-01-30T14:46:01.000+01:00</time>
      </trkpt>
      <trkpt lat="45.29329" lon="5.77241">
        <ele>1315.81</ele>
        <time>2000-01-30T14:46:07.000+01:00</time>
      </trkpt>
      <trkpt lat="45.29329" lon="5.77241">
        <ele>1315.81</ele>
        <time>2000-01-30T14:46:13.000+01:00</time>
      </trkpt>
      <trkpt lat="45.29328" lon="5.7727">
        <ele>1311.7</ele>
        <time>2000-01-30T14:46:19.000+01:00</time>
      </trkpt>
      <trkpt lat="45.2933" lon="5.77279">
        <ele>1313.16</ele>
        <time>2000-01-30T14:46:24.000+01:00</time>
      </trkpt>
      <trkpt lat="45.29342" lon="5.77285">
        <ele>1313.77</ele>
        <time>2000-01-30T14:46:30.000+01:00</time>
      </trkpt>
      <trkpt lat="45.29348" lon="5.77287">
        <ele>1317.47</ele>
        <time>2000-01-30T14:46:36.000+01:00</time>
      </trkpt>
      <trkpt lat="45.29358" lon="5.7729">
        <ele>1319.14</ele>
        <time>2000-01-30T14:46:42.000+01:00</time>
      </trkpt>
      <trkpt lat="45.29358" lon="5.7729">
        <ele>1319.14</ele>
        <time>2000-01-30T14:46:48.000+01:00</time>
      </trkpt>
      <trkpt lat="45.29358" lon="5.7729">
        <ele>1319.14</ele>
        <time>2000-01-30T14:46:54.000+01:00</time>
      </trkpt>
      <trkpt lat="45.29358" lon="5.7729">
        <ele>1319.14</ele>
        <time>2000-01-30T14:47:00.000+01:00</time>
      </trkpt>
      <trkpt lat="45.29381" lon="5.77283">
        <ele>1322.87</ele>
        <time>2000-01-30T14:47:06.000+01:00</time>
      </trkpt>
      <trkpt lat="45.29381" lon="5.77283">
        <ele>1322.87</ele>
        <time>2000-01-30T14:47:12.000+01:00</time>
      </trkpt>
      <trkpt lat="45.29395" lon="5.77282">
        <ele>1322.77</ele>
        <time>2000-01-30T14:47:18.000+01:00</time>
      </trkpt>
      <trkpt lat="45.29407" lon="5.77284">
        <ele>1323.86</ele>
        <time>2000-01-30T14:47:24.000+01:00</time>
      </trkpt>
      <trkpt lat="45.29422" lon="5.77289">
        <ele>1329.1</ele>
        <time>2000-01-30T14:47:30.000+01:00</time>
      </trkpt>
      <trkpt lat="45.29425" lon="5.7729">
        <ele>1329.51</ele>
        <time>2000-01-30T14:47:36.000+01:00</time>
      </trkpt>
      <trkpt lat="45.29425" lon="5.7729">
        <ele>1329.51</ele>
        <time>2000-01-30T14:47:42.000+01:00</time>
      </trkpt>
      <trkpt lat="45.2943" lon="5.77308">
        <ele>1334.33</ele>
        <time>2000-01-30T14:47:48.000+01:00</time>
      </trkpt>
      <trkpt lat="45.2943" lon="5.77311">
        <ele>1334.12</ele>
        <time>2000-01-30T14:47:54.000+01:00</time>
      </trkpt>
      <trkpt lat="45.2943" lon="5.77311">
        <ele>1334.12</ele>
        <time>2000-01-30T14:48:00.000+01:00</time>
      </trkpt>
      <trkpt lat="45.2943" lon="5.77311">
        <ele>1334.12</ele>
        <time>2000-01-30T14:48:06.000+01:00</time>
      </trkpt>
      <trkpt lat="45.2943" lon="5.77311">
        <ele>1334.12</ele>
        <time>2000-01-30T14:48:12.000+01:00</time>
      </trkpt>
      <trkpt lat="45.2943" lon="5.77311">
        <ele>1334.12</ele>
        <time>2000-01-30T14:48:18.000+01:00</time>
      </trkpt>
      <trkpt lat="45.2943" lon="5.77311">
        <ele>1334.12</ele>
        <time>2000-01-30T14:48:24.000+01:00</time>
      </trkpt>
      <trkpt lat="45.2943" lon="5.77311">
        <ele>1334.12</ele>
        <time>2000-01-30T14:48:30.000+01:00</time>
      </trkpt>
      <trkpt lat="45.29385" lon="5.77317">
        <ele>1337.9</ele>
        <time>2000-01-30T14:48:36.000+01:00</time>
      </trkpt>
      <trkpt lat="45.29385" lon="5.77317">
        <ele>1337.9</ele>
        <time>2000-01-30T14:48:42.000+01:00</time>
      </trkpt>
      <trkpt lat="45.29385" lon="5.77317">
        <ele>1337.9</ele>
        <time>2000-01-30T14:48:48.000+01:00</time>
      </trkpt>
      <trkpt lat="45.29385" lon="5.77317">
        <ele>1337.9</ele>
        <time>2000-01-30T14:48:54.000+01:00</time>
      </trkpt>
      <trkpt lat="45.29385" lon="5.77317">
        <ele>1337.9</ele>
        <time>2000-01-30T14:49:00.000+01:00</time>
      </trkpt>
      <trkpt lat="45.29385" lon="5.77317">
        <ele>1337.9</ele>
        <time>2000-01-30T14:49:06.000+01:00</time>
      </trkpt>
      <trkpt lat="45.29385" lon="5.77317">
        <ele>1337.9</ele>
        <time>2000-01-30T14:49:12.000+01:00</time>
      </trkpt>
      <trkpt lat="45.29357" lon="5.77328">
        <ele>1359.26</ele>
        <time>2000-01-30T14:49:18.000+01:00</time>
      </trkpt>
      <trkpt lat="45.29359" lon="5.77328">
        <ele>1365.57</ele>
        <time>2000-01-30T14:49:24.000+01:00</time>
      </trkpt>
      <trkpt lat="45.29359" lon="5.7733">
        <ele>1377.82</ele>
        <time>2000-01-30T14:49:30.000+01:00</time>
      </trkpt>
      <trkpt lat="45.29357" lon="5.7733">
        <ele>1376.64</ele>
        <time>2000-01-30T14:49:36.000+01:00</time>
      </trkpt>
      <trkpt lat="45.29357" lon="5.7733">
        <ele>1376.64</ele>
        <time>2000-01-30T14:49:42.000+01:00</time>
      </trkpt>
      <trkpt lat="45.29357" lon="5.7733">
        <ele>1376.64</ele>
        <time>2000-01-30T14:49:48.000+01:00</time>
      </trkpt>
      <trkpt lat="45.29357" lon="5.7733">
        <ele>1376.64</ele>
        <time>2000-01-30T14:49:54.000+01:00</time>
      </trkpt>
      <trkpt lat="45.29297" lon="5.77333">
        <ele>1351.49</ele>
        <time>2000-01-30T14:50:00.000+01:00</time>
      </trkpt>
      <trkpt lat="45.29295" lon="5.77333">
        <ele>1351.79</ele>
        <time>2000-01-30T14:50:06.000+01:00</time>
      </trkpt>
      <trkpt lat="45.29295" lon="5.77333">
        <ele>1351.79</ele>
        <time>2000-01-30T14:50:12.000+01:00</time>
      </trkpt>
      <trkpt lat="45.29295" lon="5.77333">
        <ele>1351.79</ele>
        <time>2000-01-30T14:50:18.000+01:00</time>
      </trkpt>
      <trkpt lat="45.29272" lon="5.77314">
        <ele>1340.09</ele>
        <time>2000-01-30T14:50:24.000+01:00</time>
      </trkpt>
      <trkpt lat="45.29267" lon="5.77311">
        <ele>1335.33</ele>
        <time>2000-01-30T14:50:30.000+01:00</time>
      </trkpt>
      <trkpt lat="45.29267" lon="5.77311">
        <ele>1335.33</ele>
        <time>2000-01-30T14:50:36.000+01:00</time>
      </trkpt>
      <trkpt lat="45.29231" lon="5.77306">
        <ele>1305.3</ele>
        <time>2000-01-30T14:50:42.000+01:00</time>
      </trkpt>
      <trkpt lat="45.29223" lon="5.773">
        <ele>1299.44</ele>
        <time>2000-01-30T14:50:48.000+01:00</time>
      </trkpt>
      <trkpt lat="45.29224" lon="5.77299">
        <ele>1299.98</ele>
        <time>2000-01-30T14:50:54.000+01:00</time>
      </trkpt>
      <trkpt lat="45.29229" lon="5.77286">
        <ele>1298.29</ele>
        <time>2000-01-30T14:51:00.000+01:00</time>
      </trkpt>
      <trkpt lat="45.2923" lon="5.77275">
        <ele>1304.81</ele>
        <time>2000-01-30T14:51:06.000+01:00</time>
      </trkpt>
      <trkpt lat="45.2923" lon="5.77273">
        <ele>1306.81</ele>
        <time>2000-01-30T14:51:12.000+01:00</time>
      </trkpt>
      <trkpt lat="45.2923" lon="5.77273">
        <ele>1306.81</ele>
        <time>2000-01-30T14:51:18.000+01:00</time>
      </trkpt>
      <trkpt lat="45.2923" lon="5.77273">
        <ele>1306.81</ele>
        <time>2000-01-30T14:51:24.000+01:00</time>
      </trkpt>
      <trkpt lat="45.29218" lon="5.77256">
        <ele>1318.1</ele>
        <time>2000-01-30T14:51:30.000+01:00</time>
      </trkpt>
      <trkpt lat="45.2921" lon="5.77252">
        <ele>1315.21</ele>
        <time>2000-01-30T14:51:36.000+01:00</time>
      </trkpt>
      <trkpt lat="45.29206" lon="5.77249">
        <ele>1315.44</ele>
        <time>2000-01-30T14:51:42.000+01:00</time>
      </trkpt>
      <trkpt lat="45.29206" lon="5.77249">
        <ele>1315.44</ele>
        <time>2000-01-30T14:51:48.000+01:00</time>
      </trkpt>
      <trkpt lat="45.29201" lon="5.77234">
        <ele>1321.77</ele>
        <time>2000-01-30T14:51:54.000+01:00</time>
      </trkpt>
      <trkpt lat="45.29201" lon="5.77234">
        <ele>1321.77</ele>
        <time>2000-01-30T14:52:00.000+01:00</time>
      </trkpt>
      <trkpt lat="45.29201" lon="5.77234">
        <ele>1321.77</ele>
        <time>2000-01-30T14:52:06.000+01:00</time>
      </trkpt>
      <trkpt lat="45.29183" lon="5.77218">
        <ele>1317.05</ele>
        <time>2000-01-30T14:52:12.000+01:00</time>
      </trkpt>
      <trkpt lat="45.29174" lon="5.77214">
        <ele>1313.65</ele>
        <time>2000-01-30T14:52:18.000+01:00</time>
      </trkpt>
      <trkpt lat="45.29169" lon="5.77206">
        <ele>1313.27</ele>
        <time>2000-01-30T14:52:24.000+01:00</time>
      </trkpt>
      <trkpt lat="45.29161" lon="5.77197">
        <ele>1315.17</ele>
        <time>2000-01-30T14:52:30.000+01:00</time>
      </trkpt>
      <trkpt lat="45.29155" lon="5.77192">
        <ele>1314.05</ele>
        <time>2000-01-30T14:52:36.000+01:00</time>
      </trkpt>
      <trkpt lat="45.29148" lon="5.77185">
        <ele>1311.37</ele>
        <time>2000-01-30T14:52:42.000+01:00</time>
      </trkpt>
      <trkpt lat="45.29145" lon="5.77176">
        <ele>1312.87</ele>
        <time>2000-01-30T14:52:48.000+01:00</time>
      </trkpt>
      <trkpt lat="45.29139" lon="5.77169">
        <ele>1314.98</ele>
        <time>2000-01-30T14:52:54.000+01:00</time>
      </trkpt>
      <trkpt lat="45.2912" lon="5.77161">
        <ele>1310.27</ele>
        <time>2000-01-30T14:53:00.000+01:00</time>
      </trkpt>
      <trkpt lat="45.29113" lon="5.77158">
        <ele>1308.99</ele>
        <time>2000-01-30T14:53:06.000+01:00</time>
      </trkpt>
      <trkpt lat="45.29099" lon="5.7714">
        <ele>1313.97</ele>
        <time>2000-01-30T14:53:12.000+01:00</time>
      </trkpt>
      <trkpt lat="45.29086" lon="5.77127">
        <ele>1318.63</ele>
        <time>2000-01-30T14:53:18.000+01:00</time>
      </trkpt>
      <trkpt lat="45.29085" lon="5.77118">
        <ele>1323.8</ele>
        <time>2000-01-30T14:53:24.000+01:00</time>
      </trkpt>
      <trkpt lat="45.29066" lon="5.7711">
        <ele>1322.64</ele>
        <time>2000-01-30T14:53:30.000+01:00</time>
      </trkpt>
      <trkpt lat="45.29067" lon="5.77104">
        <ele>1327.08</ele>
        <time>2000-01-30T14:53:36.000+01:00</time>
      </trkpt>
      <trkpt lat="45.2906" lon="5.77094">
        <ele>1331.6</ele>
        <time>2000-01-30T14:53:42.000+01:00</time>
      </trkpt>
      <trkpt lat="45.29043" lon="5.77095">
        <ele>1329.35</ele>
        <time>2000-01-30T14:53:48.000+01:00</time>
      </trkpt>
      <trkpt lat="45.29035" lon="5.77102">
        <ele>1330.82</ele>
        <time>2000-01-30T14:53:54.000+01:00</time>
      </trkpt>
      <trkpt lat="45.2903" lon="5.77109">
        <ele>1334.18</ele>
        <time>2000-01-30T14:54:00.000+01:00</time>
      </trkpt>
      <trkpt lat="45.29027" lon="5.77112">
        <ele>1333.36</ele>
        <time>2000-01-30T14:54:06.000+01:00</time>
      </trkpt>
      <trkpt lat="45.28977" lon="5.77105">
        <ele>1329.74</ele>
        <time>2000-01-30T14:54:12.000+01:00</time>
      </trkpt>
      <trkpt lat="45.28946" lon="5.77087">
        <ele>1327.26</ele>
        <time>2000-01-30T14:54:18.000+01:00</time>
      </trkpt>
      <trkpt lat="45.28945" lon="5.77077">
        <ele>1324.93</ele>
        <time>2000-01-30T14:54:24.000+01:00</time>
      </trkpt>
      <trkpt lat="45.28943" lon="5.77073">
        <ele>1329.09</ele>
        <time>2000-01-30T14:54:30.000+01:00</time>
      </trkpt>
      <trkpt lat="45.28931" lon="5.77066">
        <ele>1330.71</ele>
        <time>2000-01-30T14:54:36.000+01:00</time>
      </trkpt>
      <trkpt lat="45.28924" lon="5.77062">
        <ele>1331.16</ele>
        <time>2000-01-30T14:54:42.000+01:00</time>
      </trkpt>
      <trkpt lat="45.28907" lon="5.77058">
        <ele>1327.14</ele>
        <time>2000-01-30T14:54:48.000+01:00</time>
      </trkpt>
      <trkpt lat="45.28885" lon="5.77044">
        <ele>1321.9</ele>
        <time>2000-01-30T14:54:54.000+01:00</time>
      </trkpt>
      <trkpt lat="45.28869" lon="5.7703">
        <ele>1317.23</ele>
        <time>2000-01-30T14:55:00.000+01:00</time>
      </trkpt>
      <trkpt lat="45.28863" lon="5.77012">
        <ele>1308.7</ele>
        <time>2000-01-30T14:55:06.000+01:00</time>
      </trkpt>
      <trkpt lat="45.28837" lon="5.76994">
        <ele>1302.26</ele>
        <time>2000-01-30T14:55:12.000+01:00</time>
      </trkpt>
      <trkpt lat="45.28821" lon="5.76971">
        <ele>1299.48</ele>
        <time>2000-01-30T14:55:19.000+01:00</time>
      </trkpt>
      <trkpt lat="45.28839" lon="5.76909">
        <ele>1299.65</ele>
        <time>2000-01-30T14:55:25.000+01:00</time>
      </trkpt>
      <trkpt lat="45.28844" lon="5.76852">
        <ele>1296.75</ele>
        <time>2000-01-30T14:55:31.000+01:00</time>
      </trkpt>
      <trkpt lat="45.28837" lon="5.76813">
        <ele>1294.1</ele>
        <time>2000-01-30T14:55:37.000+01:00</time>
      </trkpt>
      <trkpt lat="45.28828" lon="5.76822">
        <ele>1286.71</ele>
        <time>2000-01-30T14:55:43.000+01:00</time>
      </trkpt>
      <trkpt lat="45.28828" lon="5.76822">
        <ele>1286.71</ele>
        <time>2000-01-30T14:55:49.000+01:00</time>
      </trkpt>
      <trkpt lat="45.28828" lon="5.76822">
        <ele>1286.71</ele>
        <time>2000-01-30T14:55:55.000+01:00</time>
      </trkpt>
      <trkpt lat="45.28828" lon="5.76822">
        <ele>1286.71</ele>
        <time>2000-01-30T14:56:01.000+01:00</time>
      </trkpt>
      <trkpt lat="45.28806" lon="5.76834">
        <ele>1250.61</ele>
        <time>2000-01-30T14:56:07.000+01:00</time>
      </trkpt>
      <trkpt lat="45.28797" lon="5.76832">
        <ele>1257.99</ele>
        <time>2000-01-30T14:56:13.000+01:00</time>
      </trkpt>
      <trkpt lat="45.28797" lon="5.76832">
        <ele>1257.99</ele>
        <time>2000-01-30T14:56:19.000+01:00</time>
      </trkpt>
      <trkpt lat="45.28797" lon="5.76832">
        <ele>1257.99</ele>
        <time>2000-01-30T14:56:25.000+01:00</time>
      </trkpt>
      <trkpt lat="45.28797" lon="5.76832">
        <ele>1257.99</ele>
        <time>2000-01-30T14:56:31.000+01:00</time>
      </trkpt>
      <trkpt lat="45.28797" lon="5.76832">
        <ele>1257.99</ele>
        <time>2000-01-30T14:56:37.000+01:00</time>
      </trkpt>
      <trkpt lat="45.28797" lon="5.76832">
        <ele>1257.99</ele>
        <time>2000-01-30T14:56:43.000+01:00</time>
      </trkpt>
      <trkpt lat="45.28797" lon="5.76832">
        <ele>1257.99</ele>
        <time>2000-01-30T14:56:49.000+01:00</time>
      </trkpt>
      <trkpt lat="45.28797" lon="5.76832">
        <ele>1257.99</ele>
        <time>2000-01-30T14:56:57.000+01:00</time>
      </trkpt>
      <trkpt lat="45.28796" lon="5.76853">
        <ele>1305.16</ele>
        <time>2000-01-30T14:57:03.000+01:00</time>
      </trkpt>
      <trkpt lat="45.28799" lon="5.76855">
        <ele>1305.42</ele>
        <time>2000-01-30T14:57:09.000+01:00</time>
      </trkpt>
      <trkpt lat="45.28799" lon="5.76855">
        <ele>1305.42</ele>
        <time>2000-01-30T14:57:15.000+01:00</time>
      </trkpt>
      <trkpt lat="45.28778" lon="5.7687">
        <ele>1304.54</ele>
        <time>2000-01-30T14:57:21.000+01:00</time>
      </trkpt>
      <trkpt lat="45.28778" lon="5.7687">
        <ele>1304.54</ele>
        <time>2000-01-30T14:57:27.000+01:00</time>
      </trkpt>
      <trkpt lat="45.28778" lon="5.7687">
        <ele>1304.54</ele>
        <time>2000-01-30T14:57:33.000+01:00</time>
      </trkpt>
      <trkpt lat="45.28768" lon="5.76881">
        <ele>1320.2</ele>
        <time>2000-01-30T14:57:39.000+01:00</time>
      </trkpt>
      <trkpt lat="45.28768" lon="5.76881">
        <ele>1320.2</ele>
        <time>2000-01-30T14:57:45.000+01:00</time>
      </trkpt>
      <trkpt lat="45.28769" lon="5.76898">
        <ele>1329.52</ele>
        <time>2000-01-30T14:57:51.000+01:00</time>
      </trkpt>
      <trkpt lat="45.28761" lon="5.76909">
        <ele>1328.06</ele>
        <time>2000-01-30T14:57:56.800+01:00</time>
      </trkpt>
      <trkpt lat="45.28737" lon="5.76918">
        <ele>1328.82</ele>
        <time>2000-01-30T14:58:02.000+01:00</time>
      </trkpt>
      <trkpt lat="45.28712" lon="5.76923">
        <ele>1323.96</ele>
        <time>2000-01-30T14:58:08.000+01:00</time>
      </trkpt>
      <trkpt lat="45.28701" lon="5.76921">
        <ele>1324.56</ele>
        <time>2000-01-30T14:58:14.000+01:00</time>
      </trkpt>
      <trkpt lat="45.28691" lon="5.76915">
        <ele>1323.11</ele>
        <time>2000-01-30T14:58:20.000+01:00</time>
      </trkpt>
      <trkpt lat="45.28685" lon="5.76912">
        <ele>1324.32</ele>
        <time>2000-01-30T14:58:26.000+01:00</time>
      </trkpt>
      <trkpt lat="45.2867" lon="5.76916">
        <ele>1324.01</ele>
        <time>2000-01-30T14:58:32.000+01:00</time>
      </trkpt>
      <trkpt lat="45.28659" lon="5.76918">
        <ele>1325.09</ele>
        <time>2000-01-30T14:58:38.000+01:00</time>
      </trkpt>
      <trkpt lat="45.28638" lon="5.76922">
        <ele>1325.74</ele>
        <time>2000-01-30T14:58:44.000+01:00</time>
      </trkpt>
      <trkpt lat="45.28627" lon="5.76927">
        <ele>1324.12</ele>
        <time>2000-01-30T14:58:50.000+01:00</time>
      </trkpt>
      <trkpt lat="45.28625" lon="5.76927">
        <ele>1322.98</ele>
        <time>2000-01-30T14:58:56.000+01:00</time>
      </trkpt>
      <trkpt lat="45.28625" lon="5.76927">
        <ele>1322.98</ele>
        <time>2000-01-30T14:59:02.000+01:00</time>
      </trkpt>
      <trkpt lat="45.28625" lon="5.76927">
        <ele>1322.98</ele>
        <time>2000-01-30T14:59:08.000+01:00</time>
      </trkpt>
      <trkpt lat="45.28625" lon="5.76927">
        <ele>1322.98</ele>
        <time>2000-01-30T14:59:14.000+01:00</time>
      </trkpt>
      <trkpt lat="45.28602" lon="5.76927">
        <ele>1324.87</ele>
        <time>2000-01-30T14:59:20.000+01:00</time>
      </trkpt>
      <trkpt lat="45.28581" lon="5.76921">
        <ele>1326.01</ele>
        <time>2000-01-30T14:59:26.000+01:00</time>
      </trkpt>
      <trkpt lat="45.28579" lon="5.76916">
        <ele>1324.23</ele>
        <time>2000-01-30T14:59:32.000+01:00</time>
      </trkpt>
      <trkpt lat="45.28579" lon="5.76916">
        <ele>1324.23</ele>
        <time>2000-01-30T14:59:38.000+01:00</time>
      </trkpt>
      <trkpt lat="45.28579" lon="5.76916">
        <ele>1324.23</ele>
        <time>2000-01-30T14:59:44.000+01:00</time>
      </trkpt>
      <trkpt lat="45.28579" lon="5.76916">
        <ele>1324.23</ele>
        <time>2000-01-30T14:59:50.000+01:00</time>
      </trkpt>
      <trkpt lat="45.2857" lon="5.76914">
        <ele>1331.86</ele>
        <time>2000-01-30T14:59:56.000+01:00</time>
      </trkpt>
      <trkpt lat="45.28556" lon="5.76916">
        <ele>1332.14</ele>
        <time>2000-01-30T15:00:02.000+01:00</time>
      </trkpt>
      <trkpt lat="45.28548" lon="5.76905">
        <ele>1333.68</ele>
        <time>2000-01-30T15:00:08.000+01:00</time>
      </trkpt>
      <trkpt lat="45.28548" lon="5.76905">
        <ele>1333.68</ele>
        <time>2000-01-30T15:00:14.000+01:00</time>
      </trkpt>
      <trkpt lat="45.28548" lon="5.76905">
        <ele>1333.68</ele>
        <time>2000-01-30T15:00:20.000+01:00</time>
      </trkpt>
      <trkpt lat="45.28548" lon="5.76905">
        <ele>1333.68</ele>
        <time>2000-01-30T15:00:26.000+01:00</time>
      </trkpt>
      <trkpt lat="45.28548" lon="5.76905">
        <ele>1333.68</ele>
        <time>2000-01-30T15:00:32.000+01:00</time>
      </trkpt>
      <trkpt lat="45.28548" lon="5.76905">
        <ele>1333.68</ele>
        <time>2000-01-30T15:00:38.000+01:00</time>
      </trkpt>
      <trkpt lat="45.28548" lon="5.76905">
        <ele>1333.68</ele>
        <time>2000-01-30T15:00:44.000+01:00</time>
      </trkpt>
      <trkpt lat="45.28548" lon="5.76905">
        <ele>1333.68</ele>
        <time>2000-01-30T15:00:50.000+01:00</time>
      </trkpt>
      <trkpt lat="45.28548" lon="5.76905">
        <ele>1333.68</ele>
        <time>2000-01-30T15:00:56.000+01:00</time>
      </trkpt>
      <trkpt lat="45.28548" lon="5.76905">
        <ele>1333.68</ele>
        <time>2000-01-30T15:01:02.000+01:00</time>
      </trkpt>
      <trkpt lat="45.28548" lon="5.76905">
        <ele>1333.68</ele>
        <time>2000-01-30T15:01:08.000+01:00</time>
      </trkpt>
      <trkpt lat="45.28548" lon="5.76905">
        <ele>1333.68</ele>
        <time>2000-01-30T15:01:14.000+01:00</time>
      </trkpt>
      <trkpt lat="45.28548" lon="5.76905">
        <ele>1333.68</ele>
        <time>2000-01-30T15:01:20.000+01:00</time>
      </trkpt>
      <trkpt lat="45.28548" lon="5.76905">
        <ele>1333.68</ele>
        <time>2000-01-30T15:01:26.000+01:00</time>
      </trkpt>
      <trkpt lat="45.28548" lon="5.76905">
        <ele>1333.68</ele>
        <time>2000-01-30T15:01:32.000+01:00</time>
      </trkpt>
      <trkpt lat="45.28548" lon="5.76905">
        <ele>1333.68</ele>
        <time>2000-01-30T15:01:38.000+01:00</time>
      </trkpt>
      <trkpt lat="45.28548" lon="5.76905">
        <ele>1333.68</ele>
        <time>2000-01-30T15:01:44.000+01:00</time>
      </trkpt>
      <trkpt lat="45.28548" lon="5.76905">
        <ele>1333.68</ele>
        <time>2000-01-30T15:01:50.000+01:00</time>
      </trkpt>
      <trkpt lat="45.28548" lon="5.76905">
        <ele>1333.68</ele>
        <time>2000-01-30T15:01:55.999+01:00</time>
      </trkpt>
      <trkpt lat="45.28548" lon="5.76905">
        <ele>1333.68</ele>
        <time>2000-01-30T15:02:01.000+01:00</time>
      </trkpt>
      <trkpt lat="45.28548" lon="5.76905">
        <ele>1333.68</ele>
        <time>2000-01-30T15:02:07.000+01:00</time>
      </trkpt>
      <trkpt lat="45.28548" lon="5.76905">
        <ele>1333.68</ele>
        <time>2000-01-30T15:02:13.000+01:00</time>
      </trkpt>
      <trkpt lat="45.28548" lon="5.76905">
        <ele>1333.68</ele>
        <time>2000-01-30T15:02:19.000+01:00</time>
      </trkpt>
      <trkpt lat="45.28548" lon="5.76905">
        <ele>1333.68</ele>
        <time>2000-01-30T15:02:25.000+01:00</time>
      </trkpt>
      <trkpt lat="45.28548" lon="5.76905">
        <ele>1333.68</ele>
        <time>2000-01-30T15:02:31.000+01:00</time>
      </trkpt>
      <trkpt lat="45.28548" lon="5.76905">
        <ele>1333.68</ele>
        <time>2000-01-30T15:02:36.000+01:00</time>
      </trkpt>
      <trkpt lat="45.28541" lon="5.76873">
        <ele>1330.67</ele>
        <time>2000-01-30T15:02:42.000+01:00</time>
      </trkpt>
      <trkpt lat="45.28519" lon="5.76869">
        <ele>1320.32</ele>
        <time>2000-01-30T15:02:48.000+01:00</time>
      </trkpt>
      <trkpt lat="45.2849" lon="5.76844">
        <ele>1312.25</ele>
        <time>2000-01-30T15:02:54.000+01:00</time>
      </trkpt>
      <trkpt lat="45.28473" lon="5.76838">
        <ele>1311.4</ele>
        <time>2000-01-30T15:03:00.000+01:00</time>
      </trkpt>
      <trkpt lat="45.28473" lon="5.76838">
        <ele>1311.98</ele>
        <time>2000-01-30T15:03:06.000+01:00</time>
      </trkpt>
      <trkpt lat="45.28473" lon="5.76838">
        <ele>1311.98</ele>
        <time>2000-01-30T15:03:12.000+01:00</time>
      </trkpt>
      <trkpt lat="45.28473" lon="5.76838">
        <ele>1311.98</ele>
        <time>2000-01-30T15:03:18.000+01:00</time>
      </trkpt>
      <trkpt lat="45.28473" lon="5.76838">
        <ele>1311.98</ele>
        <time>2000-01-30T15:03:24.000+01:00</time>
      </trkpt>
      <trkpt lat="45.28473" lon="5.76838">
        <ele>1311.98</ele>
        <time>2000-01-30T15:03:30.000+01:00</time>
      </trkpt>
      <trkpt lat="45.28473" lon="5.76838">
        <ele>1311.98</ele>
        <time>2000-01-30T15:03:36.000+01:00</time>
      </trkpt>
      <trkpt lat="45.28473" lon="5.76838">
        <ele>1311.98</ele>
        <time>2000-01-30T15:03:42.000+01:00</time>
      </trkpt>
      <trkpt lat="45.28459" lon="5.76831">
        <ele>1329.23</ele>
        <time>2000-01-30T15:03:48.000+01:00</time>
      </trkpt>
      <trkpt lat="45.28453" lon="5.76816">
        <ele>1328.84</ele>
        <time>2000-01-30T15:03:54.000+01:00</time>
      </trkpt>
      <trkpt lat="45.28448" lon="5.76803">
        <ele>1327.72</ele>
        <time>2000-01-30T15:04:00.000+01:00</time>
      </trkpt>
      <trkpt lat="45.28443" lon="5.76798">
        <ele>1318.98</ele>
        <time>2000-01-30T15:04:06.000+01:00</time>
      </trkpt>
      <trkpt lat="45.2844" lon="5.76788">
        <ele>1320.83</ele>
        <time>2000-01-30T15:04:12.000+01:00</time>
      </trkpt>
      <trkpt lat="45.2844" lon="5.76788">
        <ele>1320.83</ele>
        <time>2000-01-30T15:04:18.000+01:00</time>
      </trkpt>
      <trkpt lat="45.2844" lon="5.76788">
        <ele>1320.83</ele>
        <time>2000-01-30T15:04:24.009+01:00</time>
      </trkpt>
      <trkpt lat="45.2844" lon="5.76788">
        <ele>1320.83</ele>
        <time>2000-01-30T15:04:29.000+01:00</time>
      </trkpt>
      <trkpt lat="45.28434" lon="5.76753">
        <ele>1313.62</ele>
        <time>2000-01-30T15:04:35.000+01:00</time>
      </trkpt>
      <trkpt lat="45.28434" lon="5.76753">
        <ele>1313.62</ele>
        <time>2000-01-30T15:04:41.000+01:00</time>
      </trkpt>
      <trkpt lat="45.28436" lon="5.76723">
        <ele>1315.49</ele>
        <time>2000-01-30T15:04:47.000+01:00</time>
      </trkpt>
      <trkpt lat="45.28441" lon="5.76709">
        <ele>1313.46</ele>
        <time>2000-01-30T15:04:53.000+01:00</time>
      </trkpt>
      <trkpt lat="45.28443" lon="5.76701">
        <ele>1314.31</ele>
        <time>2000-01-30T15:04:59.000+01:00</time>
      </trkpt>
      <trkpt lat="45.2845" lon="5.76683">
        <ele>1320.5</ele>
        <time>2000-01-30T15:05:05.000+01:00</time>
      </trkpt>
      <trkpt lat="45.2845" lon="5.76684">
        <ele>1318.65</ele>
        <time>2000-01-30T15:05:11.000+01:00</time>
      </trkpt>
      <trkpt lat="45.2846" lon="5.76671">
        <ele>1321.95</ele>
        <time>2000-01-30T15:05:17.000+01:00</time>
      </trkpt>
      <trkpt lat="45.28464" lon="5.76663">
        <ele>1323.14</ele>
        <time>2000-01-30T15:05:23.000+01:00</time>
      </trkpt>
      <trkpt lat="45.28468" lon="5.76658">
        <ele>1322.97</ele>
        <time>2000-01-30T15:05:29.000+01:00</time>
      </trkpt>
      <trkpt lat="45.28468" lon="5.76656">
        <ele>1323.77</ele>
        <time>2000-01-30T15:05:35.000+01:00</time>
      </trkpt>
      <trkpt lat="45.28468" lon="5.76656">
        <ele>1323.77</ele>
        <time>2000-01-30T15:05:41.000+01:00</time>
      </trkpt>
      <trkpt lat="45.28468" lon="5.76656">
        <ele>1323.77</ele>
        <time>2000-01-30T15:05:47.000+01:00</time>
      </trkpt>
      <trkpt lat="45.28468" lon="5.76656">
        <ele>1323.77</ele>
        <time>2000-01-30T15:05:53.000+01:00</time>
      </trkpt>
      <trkpt lat="45.28468" lon="5.76656">
        <ele>1323.77</ele>
        <time>2000-01-30T15:05:59.000+01:00</time>
      </trkpt>
      <trkpt lat="45.28488" lon="5.76611">
        <ele>1321.36</ele>
        <time>2000-01-30T15:06:05.000+01:00</time>
      </trkpt>
      <trkpt lat="45.28494" lon="5.76599">
        <ele>1321.13</ele>
        <time>2000-01-30T15:06:11.000+01:00</time>
      </trkpt>
      <trkpt lat="45.28499" lon="5.76588">
        <ele>1321.39</ele>
        <time>2000-01-30T15:06:17.000+01:00</time>
      </trkpt>
      <trkpt lat="45.28505" lon="5.76579">
        <ele>1326.27</ele>
        <time>2000-01-30T15:06:23.000+01:00</time>
      </trkpt>
      <trkpt lat="45.28509" lon="5.7658">
        <ele>1324.55</ele>
        <time>2000-01-30T15:06:29.000+01:00</time>
      </trkpt>
      <trkpt lat="45.28509" lon="5.7658">
        <ele>1324.55</ele>
        <time>2000-01-30T15:06:35.000+01:00</time>
      </trkpt>
      <trkpt lat="45.28509" lon="5.7658">
        <ele>1324.55</ele>
        <time>2000-01-30T15:06:41.000+01:00</time>
      </trkpt>
      <trkpt lat="45.28527" lon="5.76563">
        <ele>1328.17</ele>
        <time>2000-01-30T15:06:47.000+01:00</time>
      </trkpt>
      <trkpt lat="45.2853" lon="5.76554">
        <ele>1332.04</ele>
        <time>2000-01-30T15:06:53.000+01:00</time>
      </trkpt>
      <trkpt lat="45.2853" lon="5.76541">
        <ele>1336.02</ele>
        <time>2000-01-30T15:06:59.000+01:00</time>
      </trkpt>
      <trkpt lat="45.2853" lon="5.76539">
        <ele>1337.4</ele>
        <time>2000-01-30T15:07:05.000+01:00</time>
      </trkpt>
      <trkpt lat="45.2853" lon="5.76539">
        <ele>1337.4</ele>
        <time>2000-01-30T15:07:11.000+01:00</time>
      </trkpt>
      <trkpt lat="45.2853" lon="5.76539">
        <ele>1337.4</ele>
        <time>2000-01-30T15:07:17.000+01:00</time>
      </trkpt>
      <trkpt lat="45.2853" lon="5.76539">
        <ele>1337.4</ele>
        <time>2000-01-30T15:07:23.000+01:00</time>
      </trkpt>
      <trkpt lat="45.2853" lon="5.76539">
        <ele>1337.4</ele>
        <time>2000-01-30T15:07:29.000+01:00</time>
      </trkpt>
      <trkpt lat="45.2853" lon="5.76539">
        <ele>1337.4</ele>
        <time>2000-01-30T15:07:35.000+01:00</time>
      </trkpt>
      <trkpt lat="45.2853" lon="5.76539">
        <ele>1337.4</ele>
        <time>2000-01-30T15:07:41.000+01:00</time>
      </trkpt>
      <trkpt lat="45.2853" lon="5.76539">
        <ele>1337.4</ele>
        <time>2000-01-30T15:07:47.000+01:00</time>
      </trkpt>
      <trkpt lat="45.2853" lon="5.76539">
        <ele>1337.4</ele>
        <time>2000-01-30T15:07:53.000+01:00</time>
      </trkpt>
      <trkpt lat="45.28537" lon="5.76497">
        <ele>1326.89</ele>
        <time>2000-01-30T15:07:59.000+01:00</time>
      </trkpt>
      <trkpt lat="45.2854" lon="5.76501">
        <ele>1324.57</ele>
        <time>2000-01-30T15:08:05.000+01:00</time>
      </trkpt>
      <trkpt lat="45.2854" lon="5.76501">
        <ele>1324.57</ele>
        <time>2000-01-30T15:08:11.000+01:00</time>
      </trkpt>
      <trkpt lat="45.28549" lon="5.7652">
        <ele>1332.32</ele>
        <time>2000-01-30T15:08:17.000+01:00</time>
      </trkpt>
      <trkpt lat="45.28553" lon="5.76532">
        <ele>1334.14</ele>
        <time>2000-01-30T15:08:23.000+01:00</time>
      </trkpt>
      <trkpt lat="45.28564" lon="5.76547">
        <ele>1333.19</ele>
        <time>2000-01-30T15:08:29.000+01:00</time>
      </trkpt>
      <trkpt lat="45.28563" lon="5.76549">
        <ele>1333.55</ele>
        <time>2000-01-30T15:08:35.000+01:00</time>
      </trkpt>
      <trkpt lat="45.28562" lon="5.76556">
        <ele>1332.36</ele>
        <time>2000-01-30T15:08:40.800+01:00</time>
      </trkpt>
      <trkpt lat="45.28562" lon="5.76558">
        <ele>1334.37</ele>
        <time>2000-01-30T15:08:46.000+01:00</time>
      </trkpt>
      <trkpt lat="45.28562" lon="5.76558">
        <ele>1334.37</ele>
        <time>2000-01-30T15:08:52.000+01:00</time>
      </trkpt>
      <trkpt lat="45.28562" lon="5.76558">
        <ele>1334.37</ele>
        <time>2000-01-30T15:08:58.000+01:00</time>
      </trkpt>
      <trkpt lat="45.28562" lon="5.76558">
        <ele>1334.37</ele>
        <time>2000-01-30T15:09:04.000+01:00</time>
      </trkpt>
      <trkpt lat="45.28562" lon="5.76558">
        <ele>1334.37</ele>
        <time>2000-01-30T15:09:10.000+01:00</time>
      </trkpt>
      <trkpt lat="45.28562" lon="5.76558">
        <ele>1334.37</ele>
        <time>2000-01-30T15:09:16.000+01:00</time>
      </trkpt>
      <trkpt lat="45.28562" lon="5.76558">
        <ele>1334.37</ele>
        <time>2000-01-30T15:09:22.000+01:00</time>
      </trkpt>
      <trkpt lat="45.28562" lon="5.76558">
        <ele>1334.37</ele>
        <time>2000-01-30T15:09:28.000+01:00</time>
      </trkpt>
      <trkpt lat="45.28562" lon="5.76558">
        <ele>1334.37</ele>
        <time>2000-01-30T15:09:34.000+01:00</time>
      </trkpt>
      <trkpt lat="45.28562" lon="5.76558">
        <ele>1334.37</ele>
        <time>2000-01-30T15:09:40.000+01:00</time>
      </trkpt>
      <trkpt lat="45.28584" lon="5.76612">
        <ele>1329.25</ele>
        <time>2000-01-30T15:09:46.005+01:00</time>
      </trkpt>
      <trkpt lat="45.28584" lon="5.76614">
        <ele>1327.19</ele>
        <time>2000-01-30T15:09:51.000+01:00</time>
      </trkpt>
      <trkpt lat="45.28584" lon="5.76614">
        <ele>1327.19</ele>
        <time>2000-01-30T15:09:57.000+01:00</time>
      </trkpt>
      <trkpt lat="45.28584" lon="5.76614">
        <ele>1327.19</ele>
        <time>2000-01-30T15:10:03.000+01:00</time>
      </trkpt>
      <trkpt lat="45.28584" lon="5.76614">
        <ele>1327.19</ele>
        <time>2000-01-30T15:10:09.000+01:00</time>
      </trkpt>
      <trkpt lat="45.28584" lon="5.76614">
        <ele>1327.19</ele>
        <time>2000-01-30T15:10:15.005+01:00</time>
      </trkpt>
      <trkpt lat="45.286" lon="5.7666">
        <ele>1333.94</ele>
        <time>2000-01-30T15:10:20.000+01:00</time>
      </trkpt>
      <trkpt lat="45.28603" lon="5.76666">
        <ele>1328.33</ele>
        <time>2000-01-30T15:10:26.000+01:00</time>
      </trkpt>
      <trkpt lat="45.28603" lon="5.76666">
        <ele>1328.33</ele>
        <time>2000-01-30T15:10:32.000+01:00</time>
      </trkpt>
      <trkpt lat="45.28603" lon="5.76666">
        <ele>1328.33</ele>
        <time>2000-01-30T15:10:38.000+01:00</time>
      </trkpt>
      <trkpt lat="45.28603" lon="5.76666">
        <ele>1328.33</ele>
        <time>2000-01-30T15:10:44.000+01:00</time>
      </trkpt>
      <trkpt lat="45.28624" lon="5.76706">
        <ele>1332.76</ele>
        <time>2000-01-30T15:10:50.000+01:00</time>
      </trkpt>
      <trkpt lat="45.28623" lon="5.76711">
        <ele>1333.84</ele>
        <time>2000-01-30T15:10:56.000+01:00</time>
      </trkpt>
      <trkpt lat="45.28623" lon="5.76711">
        <ele>1333.84</ele>
        <time>2000-01-30T15:11:02.000+01:00</time>
      </trkpt>
      <trkpt lat="45.28623" lon="5.76711">
        <ele>1333.84</ele>
        <time>2000-01-30T15:11:08.000+01:00</time>
      </trkpt>
      <trkpt lat="45.28623" lon="5.76711">
        <ele>1333.84</ele>
        <time>2000-01-30T15:11:14.000+01:00</time>
      </trkpt>
      <trkpt lat="45.28623" lon="5.76711">
        <ele>1333.84</ele>
        <time>2000-01-30T15:11:20.001+01:00</time>
      </trkpt>
      <trkpt lat="45.28623" lon="5.76711">
        <ele>1333.84</ele>
        <time>2000-01-30T15:11:25.000+01:00</time>
      </trkpt>
      <trkpt lat="45.28623" lon="5.76711">
        <ele>1333.84</ele>
        <time>2000-01-30T15:11:31.000+01:00</time>
      </trkpt>
      <trkpt lat="45.2865" lon="5.76742">
        <ele>1338.8</ele>
        <time>2000-01-30T15:11:37.000+01:00</time>
      </trkpt>
      <trkpt lat="45.28665" lon="5.76752">
        <ele>1336.15</ele>
        <time>2000-01-30T15:11:43.000+01:00</time>
      </trkpt>
      <trkpt lat="45.28673" lon="5.76773">
        <ele>1333.91</ele>
        <time>2000-01-30T15:11:48.800+01:00</time>
      </trkpt>
      <trkpt lat="45.2869" lon="5.76786">
        <ele>1329.55</ele>
        <time>2000-01-30T15:11:54.000+01:00</time>
      </trkpt>
      <trkpt lat="45.28698" lon="5.76796">
        <ele>1322.19</ele>
        <time>2000-01-30T15:12:00.000+01:00</time>
      </trkpt>
      <trkpt lat="45.28706" lon="5.76796">
        <ele>1330.05</ele>
        <time>2000-01-30T15:12:06.000+01:00</time>
      </trkpt>
      <trkpt lat="45.28718" lon="5.76798">
        <ele>1336.61</ele>
        <time>2000-01-30T15:12:12.000+01:00</time>
      </trkpt>
      <trkpt lat="45.28729" lon="5.76798">
        <ele>1335.98</ele>
        <time>2000-01-30T15:12:18.000+01:00</time>
      </trkpt>
      <trkpt lat="45.28743" lon="5.76797">
        <ele>1338.41</ele>
        <time>2000-01-30T15:12:24.000+01:00</time>
      </trkpt>
      <trkpt lat="45.28745" lon="5.76805">
        <ele>1333.76</ele>
        <time>2000-01-30T15:12:30.000+01:00</time>
      </trkpt>
      <trkpt lat="45.28754" lon="5.76812">
        <ele>1326.37</ele>
        <time>2000-01-30T15:12:36.000+01:00</time>
      </trkpt>
      <trkpt lat="45.28773" lon="5.76815">
        <ele>1334.15</ele>
        <time>2000-01-30T15:12:42.001+01:00</time>
      </trkpt>
      <trkpt lat="45.28792" lon="5.76814">
        <ele>1336.39</ele>
        <time>2000-01-30T15:12:47.000+01:00</time>
      </trkpt>
      <trkpt lat="45.28821" lon="5.76812">
        <ele>1333.65</ele>
        <time>2000-01-30T15:12:53.000+01:00</time>
      </trkpt>
      <trkpt lat="45.28843" lon="5.76816">
        <ele>1325.8</ele>
        <time>2000-01-30T15:12:59.000+01:00</time>
      </trkpt>
      <trkpt lat="45.28861" lon="5.7683">
        <ele>1321.14</ele>
        <time>2000-01-30T15:13:05.000+01:00</time>
      </trkpt>
      <trkpt lat="45.28876" lon="5.7684">
        <ele>1322.52</ele>
        <time>2000-01-30T15:13:11.000+01:00</time>
      </trkpt>
      <trkpt lat="45.28877" lon="5.76839">
        <ele>1323.09</ele>
        <time>2000-01-30T15:13:17.000+01:00</time>
      </trkpt>
      <trkpt lat="45.28877" lon="5.76839">
        <ele>1323.09</ele>
        <time>2000-01-30T15:13:22.000+01:00</time>
      </trkpt>
      <trkpt lat="45.28877" lon="5.76839">
        <ele>1323.09</ele>
        <time>2000-01-30T15:13:28.000+01:00</time>
      </trkpt>
      <trkpt lat="45.28877" lon="5.76839">
        <ele>1323.09</ele>
        <time>2000-01-30T15:13:34.000+01:00</time>
      </trkpt>
      <trkpt lat="45.28877" lon="5.76839">
        <ele>1323.09</ele>
        <time>2000-01-30T15:13:40.000+01:00</time>
      </trkpt>
      <trkpt lat="45.28877" lon="5.76839">
        <ele>1323.09</ele>
        <time>2000-01-30T15:13:46.000+01:00</time>
      </trkpt>
      <trkpt lat="45.28877" lon="5.76839">
        <ele>1323.09</ele>
        <time>2000-01-30T15:13:52.000+01:00</time>
      </trkpt>
      <trkpt lat="45.28877" lon="5.76839">
        <ele>1323.09</ele>
        <time>2000-01-30T15:13:58.000+01:00</time>
      </trkpt>
      <trkpt lat="45.28877" lon="5.76839">
        <ele>1323.09</ele>
        <time>2000-01-30T15:14:04.000+01:00</time>
      </trkpt>
      <trkpt lat="45.28877" lon="5.76839">
        <ele>1323.09</ele>
        <time>2000-01-30T15:14:10.001+01:00</time>
      </trkpt>
      <trkpt lat="45.28877" lon="5.76839">
        <ele>1323.09</ele>
        <time>2000-01-30T15:14:16.000+01:00</time>
      </trkpt>
      <trkpt lat="45.28877" lon="5.76839">
        <ele>1323.09</ele>
        <time>2000-01-30T15:14:21.000+01:00</time>
      </trkpt>
      <trkpt lat="45.28858" lon="5.76828">
        <ele>1301.35</ele>
        <time>2000-01-30T15:14:27.000+01:00</time>
      </trkpt>
      <trkpt lat="45.28856" lon="5.76827">
        <ele>1300.28</ele>
        <time>2000-01-30T15:14:33.000+01:00</time>
      </trkpt>
      <trkpt lat="45.28856" lon="5.76827">
        <ele>1300.28</ele>
        <time>2000-01-30T15:14:39.000+01:00</time>
      </trkpt>
      <trkpt lat="45.28856" lon="5.76827">
        <ele>1300.28</ele>
        <time>2000-01-30T15:14:45.000+01:00</time>
      </trkpt>
      <trkpt lat="45.28856" lon="5.76827">
        <ele>1300.28</ele>
        <time>2000-01-30T15:14:51.000+01:00</time>
      </trkpt>
      <trkpt lat="45.28856" lon="5.76827">
        <ele>1300.28</ele>
        <time>2000-01-30T15:14:57.000+01:00</time>
      </trkpt>
      <trkpt lat="45.28856" lon="5.76827">
        <ele>1300.28</ele>
        <time>2000-01-30T15:15:03.000+01:00</time>
      </trkpt>
      <trkpt lat="45.28856" lon="5.76827">
        <ele>1300.28</ele>
        <time>2000-01-30T15:15:09.000+01:00</time>
      </trkpt>
      <trkpt lat="45.28856" lon="5.76827">
        <ele>1300.28</ele>
        <time>2000-01-30T15:15:15.000+01:00</time>
      </trkpt>
      <trkpt lat="45.28856" lon="5.76827">
        <ele>1300.28</ele>
        <time>2000-01-30T15:15:21.001+01:00</time>
      </trkpt>
      <trkpt lat="45.28856" lon="5.76827">
        <ele>1300.28</ele>
        <time>2000-01-30T15:15:26.000+01:00</time>
      </trkpt>
      <trkpt lat="45.28856" lon="5.76827">
        <ele>1300.28</ele>
        <time>2000-01-30T15:15:32.000+01:00</time>
      </trkpt>
      <trkpt lat="45.28856" lon="5.76827">
        <ele>1300.28</ele>
        <time>2000-01-30T15:15:38.000+01:00</time>
      </trkpt>
      <trkpt lat="45.28856" lon="5.76827">
        <ele>1300.28</ele>
        <time>2000-01-30T15:15:43.000+01:00</time>
      </trkpt>
      <trkpt lat="45.28856" lon="5.76827">
        <ele>1300.28</ele>
        <time>2000-01-30T15:15:49.000+01:00</time>
      </trkpt>
      <trkpt lat="45.28856" lon="5.76827">
        <ele>1300.28</ele>
        <time>2000-01-30T15:15:55.000+01:00</time>
      </trkpt>
      <trkpt lat="45.28886" lon="5.76835">
        <ele>1320.91</ele>
        <time>2000-01-30T15:16:00.000+01:00</time>
      </trkpt>
      <trkpt lat="45.2891" lon="5.76846">
        <ele>1325.07</ele>
        <time>2000-01-30T15:16:06.000+01:00</time>
      </trkpt>
      <trkpt lat="45.28929" lon="5.76852">
        <ele>1331.45</ele>
        <time>2000-01-30T15:16:12.000+01:00</time>
      </trkpt>
      <trkpt lat="45.28952" lon="5.76836">
        <ele>1336.46</ele>
        <time>2000-01-30T15:16:18.001+01:00</time>
      </trkpt>
      <trkpt lat="45.28975" lon="5.7683">
        <ele>1334.77</ele>
        <time>2000-01-30T15:16:23.000+01:00</time>
      </trkpt>
      <trkpt lat="45.29006" lon="5.76818">
        <ele>1351.83</ele>
        <time>2000-01-30T15:16:29.000+01:00</time>
      </trkpt>
      <trkpt lat="45.29034" lon="5.76813">
        <ele>1337.5</ele>
        <time>2000-01-30T15:16:35.000+01:00</time>
      </trkpt>
      <trkpt lat="45.2905" lon="5.76809">
        <ele>1336.46</ele>
        <time>2000-01-30T15:16:41.000+01:00</time>
      </trkpt>
      <trkpt lat="45.29063" lon="5.76795">
        <ele>1333.86</ele>
        <time>2000-01-30T15:16:47.000+01:00</time>
      </trkpt>
      <trkpt lat="45.29079" lon="5.76768">
        <ele>1343.91</ele>
        <time>2000-01-30T15:16:52.000+01:00</time>
      </trkpt>
      <trkpt lat="45.29085" lon="5.76767">
        <ele>1342.76</ele>
        <time>2000-01-30T15:16:58.000+01:00</time>
      </trkpt>
      <trkpt lat="45.29085" lon="5.76767">
        <ele>1339.1</ele>
        <time>2000-01-30T15:17:04.000+01:00</time>
      </trkpt>
      <trkpt lat="45.29085" lon="5.76767">
        <ele>1339.1</ele>
        <time>2000-01-30T15:17:10.000+01:00</time>
      </trkpt>
      <trkpt lat="45.29085" lon="5.76767">
        <ele>1339.1</ele>
        <time>2000-01-30T15:17:16.000+01:00</time>
      </trkpt>
      <trkpt lat="45.29085" lon="5.76767">
        <ele>1339.1</ele>
        <time>2000-01-30T15:17:22.000+01:00</time>
      </trkpt>
      <trkpt lat="45.29098" lon="5.76772">
        <ele>1310.96</ele>
        <time>2000-01-30T15:17:28.000+01:00</time>
      </trkpt>
      <trkpt lat="45.29113" lon="5.76771">
        <ele>1317.65</ele>
        <time>2000-01-30T15:17:34.003+01:00</time>
      </trkpt>
      <trkpt lat="45.29128" lon="5.76772">
        <ele>1318.97</ele>
        <time>2000-01-30T15:17:40.000+01:00</time>
      </trkpt>
      <trkpt lat="45.2915" lon="5.76771">
        <ele>1330.46</ele>
        <time>2000-01-30T15:17:45.000+01:00</time>
      </trkpt>
      <trkpt lat="45.2916" lon="5.76766">
        <ele>1320.77</ele>
        <time>2000-01-30T15:17:51.000+01:00</time>
      </trkpt>
      <trkpt lat="45.2916" lon="5.76765">
        <ele>1318.87</ele>
        <time>2000-01-30T15:17:57.000+01:00</time>
      </trkpt>
      <trkpt lat="45.2916" lon="5.76765">
        <ele>1318.87</ele>
        <time>2000-01-30T15:18:03.000+01:00</time>
      </trkpt>
      <trkpt lat="45.29184" lon="5.76776">
        <ele>1299.26</ele>
        <time>2000-01-30T15:18:09.000+01:00</time>
      </trkpt>
      <trkpt lat="45.29217" lon="5.76799">
        <ele>1298.44</ele>
        <time>2000-01-30T15:18:15.000+01:00</time>
      </trkpt>
      <trkpt lat="45.29247" lon="5.76802">
        <ele>1303.77</ele>
        <time>2000-01-30T15:18:21.000+01:00</time>
      </trkpt>
      <trkpt lat="45.29266" lon="5.76804">
        <ele>1302.39</ele>
        <time>2000-01-30T15:18:26.800+01:00</time>
      </trkpt>
      <trkpt lat="45.29289" lon="5.76809">
        <ele>1305.9</ele>
        <time>2000-01-30T15:18:32.000+01:00</time>
      </trkpt>
      <trkpt lat="45.29299" lon="5.76812">
        <ele>1300.1</ele>
        <time>2000-01-30T15:18:38.000+01:00</time>
      </trkpt>
      <trkpt lat="45.2932" lon="5.76816">
        <ele>1295.54</ele>
        <time>2000-01-30T15:18:44.000+01:00</time>
      </trkpt>
      <trkpt lat="45.29347" lon="5.76812">
        <ele>1298.93</ele>
        <time>2000-01-30T15:18:50.000+01:00</time>
      </trkpt>
      <trkpt lat="45.29372" lon="5.76809">
        <ele>1307.34</ele>
        <time>2000-01-30T15:18:56.000+01:00</time>
      </trkpt>
      <trkpt lat="45.29389" lon="5.76819">
        <ele>1307.78</ele>
        <time>2000-01-30T15:19:02.000+01:00</time>
      </trkpt>
      <trkpt lat="45.29419" lon="5.76835">
        <ele>1310.8</ele>
        <time>2000-01-30T15:19:08.000+01:00</time>
      </trkpt>
      <trkpt lat="45.29449" lon="5.76858">
        <ele>1308.49</ele>
        <time>2000-01-30T15:19:14.000+01:00</time>
      </trkpt>
      <trkpt lat="45.29479" lon="5.76883">
        <ele>1303.52</ele>
        <time>2000-01-30T15:19:20.000+01:00</time>
      </trkpt>
      <trkpt lat="45.295" lon="5.76875">
        <ele>1297.33</ele>
        <time>2000-01-30T15:19:26.000+01:00</time>
      </trkpt>
      <trkpt lat="45.29499" lon="5.76871">
        <ele>1290.77</ele>
        <time>2000-01-30T15:19:32.000+01:00</time>
      </trkpt>
      <trkpt lat="45.29499" lon="5.76871">
        <ele>1290.77</ele>
        <time>2000-01-30T15:19:38.000+01:00</time>
      </trkpt>
      <trkpt lat="45.29499" lon="5.76871">
        <ele>1290.77</ele>
        <time>2000-01-30T15:19:44.000+01:00</time>
      </trkpt>
      <trkpt lat="45.29499" lon="5.76871">
        <ele>1290.77</ele>
        <time>2000-01-30T15:19:50.000+01:00</time>
      </trkpt>
      <trkpt lat="45.29499" lon="5.76871">
        <ele>1290.77</ele>
        <time>2000-01-30T15:19:56.000+01:00</time>
      </trkpt>
      <trkpt lat="45.29499" lon="5.76871">
        <ele>1290.77</ele>
        <time>2000-01-30T15:20:02.000+01:00</time>
      </trkpt>
      <trkpt lat="45.29499" lon="5.76871">
        <ele>1290.77</ele>
        <time>2000-01-30T15:20:08.000+01:00</time>
      </trkpt>
      <trkpt lat="45.29499" lon="5.76871">
        <ele>1290.77</ele>
        <time>2000-01-30T15:20:14.000+01:00</time>
      </trkpt>
      <trkpt lat="45.295" lon="5.76837">
        <ele>1270.9</ele>
        <time>2000-01-30T15:20:19.800+01:00</time>
      </trkpt>
      <trkpt lat="45.29519" lon="5.76834">
        <ele>1283.85</ele>
        <time>2000-01-30T15:20:25.000+01:00</time>
      </trkpt>
      <trkpt lat="45.29534" lon="5.76835">
        <ele>1286.13</ele>
        <time>2000-01-30T15:20:31.000+01:00</time>
      </trkpt>
      <trkpt lat="45.29553" lon="5.76843">
        <ele>1289.76</ele>
        <time>2000-01-30T15:20:37.001+01:00</time>
      </trkpt>
      <trkpt lat="45.29567" lon="5.76865">
        <ele>1291.28</ele>
        <time>2000-01-30T15:20:43.000+01:00</time>
      </trkpt>
      <trkpt lat="45.29572" lon="5.76893">
        <ele>1288.36</ele>
        <time>2000-01-30T15:20:48.000+01:00</time>
      </trkpt>
      <trkpt lat="45.29583" lon="5.76915">
        <ele>1281.18</ele>
        <time>2000-01-30T15:20:54.000+01:00</time>
      </trkpt>
      <trkpt lat="45.29594" lon="5.76931">
        <ele>1282.88</ele>
        <time>2000-01-30T15:21:00.000+01:00</time>
      </trkpt>
      <trkpt lat="45.29607" lon="5.76951">
        <ele>1281.87</ele>
        <time>2000-01-30T15:21:06.000+01:00</time>
      </trkpt>
      <trkpt lat="45.29615" lon="5.76952">
        <ele>1281.39</ele>
        <time>2000-01-30T15:21:12.000+01:00</time>
      </trkpt>
      <trkpt lat="45.29616" lon="5.76953">
        <ele>1282.34</ele>
        <time>2000-01-30T15:21:18.000+01:00</time>
      </trkpt>
      <trkpt lat="45.29616" lon="5.76953">
        <ele>1282.34</ele>
        <time>2000-01-30T15:21:24.000+01:00</time>
      </trkpt>
      <trkpt lat="45.29616" lon="5.76953">
        <ele>1282.34</ele>
        <time>2000-01-30T15:21:30.000+01:00</time>
      </trkpt>
      <trkpt lat="45.29636" lon="5.7696">
        <ele>1278.37</ele>
        <time>2000-01-30T15:21:36.000+01:00</time>
      </trkpt>
      <trkpt lat="45.29656" lon="5.76982">
        <ele>1279.8</ele>
        <time>2000-01-30T15:21:42.000+01:00</time>
      </trkpt>
      <trkpt lat="45.29679" lon="5.76979">
        <ele>1274.82</ele>
        <time>2000-01-30T15:21:48.000+01:00</time>
      </trkpt>
      <trkpt lat="45.29718" lon="5.76976">
        <ele>1299.96</ele>
        <time>2000-01-30T15:21:54.000+01:00</time>
      </trkpt>
      <trkpt lat="45.29729" lon="5.76981">
        <ele>1308.9</ele>
        <time>2000-01-30T15:22:00.000+01:00</time>
      </trkpt>
      <trkpt lat="45.29751" lon="5.76975">
        <ele>1320.15</ele>
        <time>2000-01-30T15:22:06.000+01:00</time>
      </trkpt>
      <trkpt lat="45.2977" lon="5.76986">
        <ele>1327.69</ele>
        <time>2000-01-30T15:22:12.000+01:00</time>
      </trkpt>
      <trkpt lat="45.29764" lon="5.76997">
        <ele>1324.26</ele>
        <time>2000-01-30T15:22:18.000+01:00</time>
      </trkpt>
      <trkpt lat="45.29764" lon="5.76997">
        <ele>1324.26</ele>
        <time>2000-01-30T15:22:24.000+01:00</time>
      </trkpt>
      <trkpt lat="45.29764" lon="5.76997">
        <ele>1324.26</ele>
        <time>2000-01-30T15:22:30.000+01:00</time>
      </trkpt>
      <trkpt lat="45.29731" lon="5.76983">
        <ele>1282.32</ele>
        <time>2000-01-30T15:22:36.000+01:00</time>
      </trkpt>
      <trkpt lat="45.2972" lon="5.76981">
        <ele>1261.86</ele>
        <time>2000-01-30T15:22:42.000+01:00</time>
      </trkpt>
      <trkpt lat="45.2972" lon="5.76981">
        <ele>1261.86</ele>
        <time>2000-01-30T15:22:48.000+01:00</time>
      </trkpt>
      <trkpt lat="45.2972" lon="5.76981">
        <ele>1261.86</ele>
        <time>2000-01-30T15:22:54.000+01:00</time>
      </trkpt>
      <trkpt lat="45.2972" lon="5.76981">
        <ele>1261.86</ele>
        <time>2000-01-30T15:23:00.000+01:00</time>
      </trkpt>
      <trkpt lat="45.2972" lon="5.76981">
        <ele>1261.86</ele>
        <time>2000-01-30T15:23:06.000+01:00</time>
      </trkpt>
      <trkpt lat="45.29706" lon="5.76993">
        <ele>1291.49</ele>
        <time>2000-01-30T15:23:12.000+01:00</time>
      </trkpt>
      <trkpt lat="45.29695" lon="5.76992">
        <ele>1284.78</ele>
        <time>2000-01-30T15:23:18.000+01:00</time>
      </trkpt>
      <trkpt lat="45.29693" lon="5.76993">
        <ele>1281.54</ele>
        <time>2000-01-30T15:23:24.000+01:00</time>
      </trkpt>
      <trkpt lat="45.29683" lon="5.76999">
        <ele>1285.92</ele>
        <time>2000-01-30T15:23:30.000+01:00</time>
      </trkpt>
      <trkpt lat="45.29681" lon="5.77">
        <ele>1285.25</ele>
        <time>2000-01-30T15:23:36.000+01:00</time>
      </trkpt>
      <trkpt lat="45.29671" lon="5.77006">
        <ele>1280.73</ele>
        <time>2000-01-30T15:23:42.000+01:00</time>
      </trkpt>
      <trkpt lat="45.29671" lon="5.77006">
        <ele>1280.73</ele>
        <time>2000-01-30T15:23:48.000+01:00</time>
      </trkpt>
      <trkpt lat="45.29654" lon="5.77006">
        <ele>1280.07</ele>
        <time>2000-01-30T15:23:54.000+01:00</time>
      </trkpt>
      <trkpt lat="45.29645" lon="5.77007">
        <ele>1274.21</ele>
        <time>2000-01-30T15:24:00.000+01:00</time>
      </trkpt>
      <trkpt lat="45.29644" lon="5.77019">
        <ele>1274.25</ele>
        <time>2000-01-30T15:24:06.000+01:00</time>
      </trkpt>
      <trkpt lat="45.29643" lon="5.7703">
        <ele>1275.62</ele>
        <time>2000-01-30T15:24:12.000+01:00</time>
      </trkpt>
      <trkpt lat="45.29647" lon="5.77038">
        <ele>1284.72</ele>
        <time>2000-01-30T15:24:18.000+01:00</time>
      </trkpt>
      <trkpt lat="45.29647" lon="5.77038">
        <ele>1284.72</ele>
        <time>2000-01-30T15:24:24.000+01:00</time>
      </trkpt>
      <trkpt lat="45.29651" lon="5.7706">
        <ele>1287.51</ele>
        <time>2000-01-30T15:24:30.000+01:00</time>
      </trkpt>
      <trkpt lat="45.29653" lon="5.77064">
        <ele>1284.98</ele>
        <time>2000-01-30T15:24:36.000+01:00</time>
      </trkpt>
      <trkpt lat="45.29665" lon="5.77079">
        <ele>1288.32</ele>
        <time>2000-01-30T15:24:42.000+01:00</time>
      </trkpt>
      <trkpt lat="45.29674" lon="5.7709">
        <ele>1288.97</ele>
        <time>2000-01-30T15:24:48.000+01:00</time>
      </trkpt>
      <trkpt lat="45.29681" lon="5.77101">
        <ele>1285.39</ele>
        <time>2000-01-30T15:24:54.000+01:00</time>
      </trkpt>
      <trkpt lat="45.29689" lon="5.77112">
        <ele>1286.92</ele>
        <time>2000-01-30T15:25:00.000+01:00</time>
      </trkpt>
      <trkpt lat="45.29698" lon="5.77122">
        <ele>1284.83</ele>
        <time>2000-01-30T15:25:06.000+01:00</time>
      </trkpt>
      <trkpt lat="45.29707" lon="5.77128">
        <ele>1286.45</ele>
        <time>2000-01-30T15:25:12.000+01:00</time>
      </trkpt>
      <trkpt lat="45.29721" lon="5.77135">
        <ele>1286.95</ele>
        <time>2000-01-30T15:25:18.000+01:00</time>
      </trkpt>
      <trkpt lat="45.29736" lon="5.77142">
        <ele>1285.04</ele>
        <time>2000-01-30T15:25:24.000+01:00</time>
      </trkpt>
      <trkpt lat="45.29758" lon="5.77146">
        <ele>1283.61</ele>
        <time>2000-01-30T15:25:30.000+01:00</time>
      </trkpt>
      <trkpt lat="45.29774" lon="5.77148">
        <ele>1279.26</ele>
        <time>2000-01-30T15:25:36.000+01:00</time>
      </trkpt>
      <trkpt lat="45.29783" lon="5.77147">
        <ele>1278.97</ele>
        <time>2000-01-30T15:25:42.000+01:00</time>
      </trkpt>
      <trkpt lat="45.29785" lon="5.77147">
        <ele>1280.69</ele>
        <time>2000-01-30T15:25:48.000+01:00</time>
      </trkpt>
      <trkpt lat="45.29785" lon="5.77147">
        <ele>1280.69</ele>
        <time>2000-01-30T15:25:54.000+01:00</time>
      </trkpt>
      <trkpt lat="45.29785" lon="5.77147">
        <ele>1280.69</ele>
        <time>2000-01-30T15:26:00.000+01:00</time>
      </trkpt>
      <trkpt lat="45.29785" lon="5.77147">
        <ele>1280.69</ele>
        <time>2000-01-30T15:26:06.000+01:00</time>
      </trkpt>
      <trkpt lat="45.29785" lon="5.77147">
        <ele>1280.69</ele>
        <time>2000-01-30T15:26:12.000+01:00</time>
      </trkpt>
      <trkpt lat="45.29804" lon="5.77171">
        <ele>1274.3</ele>
        <time>2000-01-30T15:26:18.000+01:00</time>
      </trkpt>
      <trkpt lat="45.29804" lon="5.77172">
        <ele>1274.12</ele>
        <time>2000-01-30T15:26:24.000+01:00</time>
      </trkpt>
      <trkpt lat="45.29804" lon="5.77172">
        <ele>1274.12</ele>
        <time>2000-01-30T15:26:30.000+01:00</time>
      </trkpt>
      <trkpt lat="45.29804" lon="5.77172">
        <ele>1274.12</ele>
        <time>2000-01-30T15:26:36.000+01:00</time>
      </trkpt>
      <trkpt lat="45.29787" lon="5.77184">
        <ele>1282.13</ele>
        <time>2000-01-30T15:26:42.000+01:00</time>
      </trkpt>
      <trkpt lat="45.29786" lon="5.77183">
        <ele>1282.63</ele>
        <time>2000-01-30T15:26:47.000+01:00</time>
      </trkpt>
      <trkpt lat="45.29786" lon="5.77183">
        <ele>1282.63</ele>
        <time>2000-01-30T15:26:53.000+01:00</time>
      </trkpt>
      <trkpt lat="45.29786" lon="5.77183">
        <ele>1282.63</ele>
        <time>2000-01-30T15:26:59.000+01:00</time>
      </trkpt>
      <trkpt lat="45.29768" lon="5.77197">
        <ele>1279.47</ele>
        <time>2000-01-30T15:27:05.000+01:00</time>
      </trkpt>
      <trkpt lat="45.2976" lon="5.77203">
        <ele>1278.19</ele>
        <time>2000-01-30T15:27:11.000+01:00</time>
      </trkpt>
      <trkpt lat="45.29757" lon="5.77202">
        <ele>1279.35</ele>
        <time>2000-01-30T15:27:16.000+01:00</time>
      </trkpt>
      <trkpt lat="45.2975" lon="5.77203">
        <ele>1292.34</ele>
        <time>2000-01-30T15:27:22.000+01:00</time>
      </trkpt>
      <trkpt lat="45.29748" lon="5.77202">
        <ele>1293.21</ele>
        <time>2000-01-30T15:27:28.000+01:00</time>
      </trkpt>
      <trkpt lat="45.29738" lon="5.77197">
        <ele>1292.13</ele>
        <time>2000-01-30T15:27:34.000+01:00</time>
      </trkpt>
      <trkpt lat="45.29727" lon="5.77187">
        <ele>1292.49</ele>
        <time>2000-01-30T15:27:40.000+01:00</time>
      </trkpt>
      <trkpt lat="45.29718" lon="5.77176">
        <ele>1292.75</ele>
        <time>2000-01-30T15:27:45.000+01:00</time>
      </trkpt>
      <trkpt lat="45.29705" lon="5.77161">
        <ele>1287.48</ele>
        <time>2000-01-30T15:27:51.000+01:00</time>
      </trkpt>
      <trkpt lat="45.29693" lon="5.77148">
        <ele>1285.2</ele>
        <time>2000-01-30T15:27:57.000+01:00</time>
      </trkpt>
      <trkpt lat="45.29677" lon="5.77129">
        <ele>1278.65</ele>
        <time>2000-01-30T15:28:03.000+01:00</time>
      </trkpt>
      <trkpt lat="45.29665" lon="5.77112">
        <ele>1275.93</ele>
        <time>2000-01-30T15:28:09.000+01:00</time>
      </trkpt>
      <trkpt lat="45.29653" lon="5.77099">
        <ele>1272.64</ele>
        <time>2000-01-30T15:28:15.000+01:00</time>
      </trkpt>
      <trkpt lat="45.29644" lon="5.77086">
        <ele>1270.82</ele>
        <time>2000-01-30T15:28:21.000+01:00</time>
      </trkpt>
      <trkpt lat="45.2964" lon="5.77087">
        <ele>1276.7</ele>
        <time>2000-01-30T15:28:27.000+01:00</time>
      </trkpt>
      <trkpt lat="45.29631" lon="5.7708">
        <ele>1283.49</ele>
        <time>2000-01-30T15:28:33.000+01:00</time>
      </trkpt>
      <trkpt lat="45.29631" lon="5.77078">
        <ele>1286.93</ele>
        <time>2000-01-30T15:28:39.000+01:00</time>
      </trkpt>
      <trkpt lat="45.29619" lon="5.77072">
        <ele>1291.83</ele>
        <time>2000-01-30T15:28:45.000+01:00</time>
      </trkpt>
      <trkpt lat="45.29609" lon="5.77062">
        <ele>1294.1</ele>
        <time>2000-01-30T15:28:51.000+01:00</time>
      </trkpt>
      <trkpt lat="45.29606" lon="5.77057">
        <ele>1293.04</ele>
        <time>2000-01-30T15:28:57.000+01:00</time>
      </trkpt>
      <trkpt lat="45.29606" lon="5.77057">
        <ele>1293.04</ele>
        <time>2000-01-30T15:29:03.002+01:00</time>
      </trkpt>
      <trkpt lat="45.29606" lon="5.77057">
        <ele>1293.04</ele>
        <time>2000-01-30T15:29:08.000+01:00</time>
      </trkpt>
      <trkpt lat="45.29606" lon="5.77057">
        <ele>1293.04</ele>
        <time>2000-01-30T15:29:14.000+01:00</time>
      </trkpt>
      <trkpt lat="45.29588" lon="5.77029">
        <ele>1284.1</ele>
        <time>2000-01-30T15:29:20.001+01:00</time>
      </trkpt>
      <trkpt lat="45.29585" lon="5.77023">
        <ele>1282.7</ele>
        <time>2000-01-30T15:29:25.800+01:00</time>
      </trkpt>
      <trkpt lat="45.29584" lon="5.77023">
        <ele>1275.73</ele>
        <time>2000-01-30T15:29:31.000+01:00</time>
      </trkpt>
      <trkpt lat="45.29584" lon="5.77023">
        <ele>1275.73</ele>
        <time>2000-01-30T15:29:37.000+01:00</time>
      </trkpt>
      <trkpt lat="45.29574" lon="5.77012">
        <ele>1269.07</ele>
        <time>2000-01-30T15:29:43.000+01:00</time>
      </trkpt>
      <trkpt lat="45.29573" lon="5.77012">
        <ele>1268.53</ele>
        <time>2000-01-30T15:29:49.000+01:00</time>
      </trkpt>
      <trkpt lat="45.29565" lon="5.77007">
        <ele>1273.32</ele>
        <time>2000-01-30T15:29:54.000+01:00</time>
      </trkpt>
      <trkpt lat="45.29555" lon="5.77002">
        <ele>1275.1</ele>
        <time>2000-01-30T15:30:00.000+01:00</time>
      </trkpt>
      <trkpt lat="45.29546" lon="5.76996">
        <ele>1274.51</ele>
        <time>2000-01-30T15:30:06.000+01:00</time>
      </trkpt>
      <trkpt lat="45.29537" lon="5.76991">
        <ele>1275.42</ele>
        <time>2000-01-30T15:30:12.000+01:00</time>
      </trkpt>
      <trkpt lat="45.29528" lon="5.76986">
        <ele>1273.49</ele>
        <time>2000-01-30T15:30:17.000+01:00</time>
      </trkpt>
      <trkpt lat="45.29523" lon="5.76986">
        <ele>1274.11</ele>
        <time>2000-01-30T15:30:23.000+01:00</time>
      </trkpt>
      <trkpt lat="45.29516" lon="5.76978">
        <ele>1275.6</ele>
        <time>2000-01-30T15:30:29.000+01:00</time>
      </trkpt>
      <trkpt lat="45.29509" lon="5.76965">
        <ele>1273.61</ele>
        <time>2000-01-30T15:30:35.000+01:00</time>
      </trkpt>
      <trkpt lat="45.29504" lon="5.76955">
        <ele>1275.52</ele>
        <time>2000-01-30T15:30:41.000+01:00</time>
      </trkpt>
      <trkpt lat="45.29496" lon="5.76944">
        <ele>1277.48</ele>
        <time>2000-01-30T15:30:47.000+01:00</time>
      </trkpt>
      <trkpt lat="45.29487" lon="5.76937">
        <ele>1277.37</ele>
        <time>2000-01-30T15:30:53.000+01:00</time>
      </trkpt>
      <trkpt lat="45.29477" lon="5.76935">
        <ele>1274.27</ele>
        <time>2000-01-30T15:30:58.000+01:00</time>
      </trkpt>
      <trkpt lat="45.29466" lon="5.76928">
        <ele>1273.69</ele>
        <time>2000-01-30T15:31:04.000+01:00</time>
      </trkpt>
      <trkpt lat="45.29456" lon="5.76923">
        <ele>1277.45</ele>
        <time>2000-01-30T15:31:10.000+01:00</time>
      </trkpt>
      <trkpt lat="45.29447" lon="5.76917">
        <ele>1279.67</ele>
        <time>2000-01-30T15:31:16.001+01:00</time>
      </trkpt>
      <trkpt lat="45.29445" lon="5.76911">
        <ele>1279.79</ele>
        <time>2000-01-30T15:31:21.000+01:00</time>
      </trkpt>
      <trkpt lat="45.29445" lon="5.76911">
        <ele>1279.79</ele>
        <time>2000-01-30T15:31:27.000+01:00</time>
      </trkpt>
      <trkpt lat="45.29445" lon="5.76911">
        <ele>1279.79</ele>
        <time>2000-01-30T15:31:33.000+01:00</time>
      </trkpt>
      <trkpt lat="45.29445" lon="5.76911">
        <ele>1279.79</ele>
        <time>2000-01-30T15:31:39.000+01:00</time>
      </trkpt>
      <trkpt lat="45.29445" lon="5.76911">
        <ele>1279.79</ele>
        <time>2000-01-30T15:31:45.000+01:00</time>
      </trkpt>
      <trkpt lat="45.29445" lon="5.76911">
        <ele>1279.79</ele>
        <time>2000-01-30T15:31:51.000+01:00</time>
      </trkpt>
      <trkpt lat="45.29445" lon="5.76911">
        <ele>1279.79</ele>
        <time>2000-01-30T15:31:57.000+01:00</time>
      </trkpt>
      <trkpt lat="45.29445" lon="5.76911">
        <ele>1279.79</ele>
        <time>2000-01-30T15:32:03.000+01:00</time>
      </trkpt>
      <trkpt lat="45.29445" lon="5.76911">
        <ele>1279.79</ele>
        <time>2000-01-30T15:32:09.000+01:00</time>
      </trkpt>
      <trkpt lat="45.29399" lon="5.76869">
        <ele>1271.29</ele>
        <time>2000-01-30T15:32:18.000+01:00</time>
      </trkpt>
      <trkpt lat="45.29399" lon="5.76868">
        <ele>1278.05</ele>
        <time>2000-01-30T15:32:24.000+01:00</time>
      </trkpt>
      <trkpt lat="45.29388" lon="5.76862">
        <ele>1271.29</ele>
        <time>2000-01-30T15:32:30.000+01:00</time>
      </trkpt>
      <trkpt lat="45.29384" lon="5.76862">
        <ele>1270.71</ele>
        <time>2000-01-30T15:32:36.000+01:00</time>
      </trkpt>
      <trkpt lat="45.29384" lon="5.76862">
        <ele>1270.71</ele>
        <time>2000-01-30T15:32:42.000+01:00</time>
      </trkpt>
      <trkpt lat="45.29384" lon="5.76862">
        <ele>1270.71</ele>
        <time>2000-01-30T15:32:48.000+01:00</time>
      </trkpt>
      <trkpt lat="45.29384" lon="5.76862">
        <ele>1270.71</ele>
        <time>2000-01-30T15:32:54.000+01:00</time>
      </trkpt>
      <trkpt lat="45.29384" lon="5.76862">
        <ele>1270.71</ele>
        <time>2000-01-30T15:33:00.000+01:00</time>
      </trkpt>
      <trkpt lat="45.29384" lon="5.76862">
        <ele>1270.71</ele>
        <time>2000-01-30T15:33:06.000+01:00</time>
      </trkpt>
      <trkpt lat="45.29384" lon="5.76862">
        <ele>1270.71</ele>
        <time>2000-01-30T15:33:12.002+01:00</time>
      </trkpt>
      <trkpt lat="45.29346" lon="5.76848">
        <ele>1289.94</ele>
        <time>2000-01-30T15:33:17.999+01:00</time>
      </trkpt>
      <trkpt lat="45.2934" lon="5.76848">
        <ele>1298.43</ele>
        <time>2000-01-30T15:33:23.000+01:00</time>
      </trkpt>
      <trkpt lat="45.29331" lon="5.76846">
        <ele>1298.8</ele>
        <time>2000-01-30T15:33:29.000+01:00</time>
      </trkpt>
      <trkpt lat="45.29326" lon="5.7684">
        <ele>1298.83</ele>
        <time>2000-01-30T15:33:35.000+01:00</time>
      </trkpt>
      <trkpt lat="45.29326" lon="5.7684">
        <ele>1298.83</ele>
        <time>2000-01-30T15:33:41.000+01:00</time>
      </trkpt>
      <trkpt lat="45.29326" lon="5.7684">
        <ele>1298.83</ele>
        <time>2000-01-30T15:33:47.000+01:00</time>
      </trkpt>
      <trkpt lat="45.29326" lon="5.7684">
        <ele>1298.83</ele>
        <time>2000-01-30T15:33:53.000+01:00</time>
      </trkpt>
      <trkpt lat="45.29326" lon="5.7684">
        <ele>1298.83</ele>
        <time>2000-01-30T15:33:59.000+01:00</time>
      </trkpt>
      <trkpt lat="45.29326" lon="5.7684">
        <ele>1298.83</ele>
        <time>2000-01-30T15:34:05.000+01:00</time>
      </trkpt>
      <trkpt lat="45.29326" lon="5.7684">
        <ele>1298.83</ele>
        <time>2000-01-30T15:34:11.000+01:00</time>
      </trkpt>
      <trkpt lat="45.29272" lon="5.76837">
        <ele>1292.15</ele>
        <time>2000-01-30T15:34:17.000+01:00</time>
      </trkpt>
      <trkpt lat="45.29263" lon="5.76834">
        <ele>1286.01</ele>
        <time>2000-01-30T15:34:23.000+01:00</time>
      </trkpt>
      <trkpt lat="45.29258" lon="5.76835">
        <ele>1290.31</ele>
        <time>2000-01-30T15:34:29.000+01:00</time>
      </trkpt>
      <trkpt lat="45.2925" lon="5.76836">
        <ele>1292.15</ele>
        <time>2000-01-30T15:34:35.000+01:00</time>
      </trkpt>
      <trkpt lat="45.29247" lon="5.76836">
        <ele>1296.82</ele>
        <time>2000-01-30T15:34:41.000+01:00</time>
      </trkpt>
      <trkpt lat="45.29247" lon="5.76836">
        <ele>1296.82</ele>
        <time>2000-01-30T15:34:47.000+01:00</time>
      </trkpt>
      <trkpt lat="45.29247" lon="5.76836">
        <ele>1296.82</ele>
        <time>2000-01-30T15:34:53.000+01:00</time>
      </trkpt>
      <trkpt lat="45.29247" lon="5.76836">
        <ele>1296.82</ele>
        <time>2000-01-30T15:34:59.000+01:00</time>
      </trkpt>
      <trkpt lat="45.29247" lon="5.76836">
        <ele>1296.82</ele>
        <time>2000-01-30T15:35:05.000+01:00</time>
      </trkpt>
      <trkpt lat="45.29247" lon="5.76836">
        <ele>1296.82</ele>
        <time>2000-01-30T15:35:11.000+01:00</time>
      </trkpt>
      <trkpt lat="45.29247" lon="5.76836">
        <ele>1296.82</ele>
        <time>2000-01-30T15:35:17.000+01:00</time>
      </trkpt>
      <trkpt lat="45.29247" lon="5.76836">
        <ele>1296.82</ele>
        <time>2000-01-30T15:35:23.000+01:00</time>
      </trkpt>
      <trkpt lat="45.29247" lon="5.76836">
        <ele>1296.82</ele>
        <time>2000-01-30T15:35:29.000+01:00</time>
      </trkpt>
      <trkpt lat="45.29247" lon="5.76836">
        <ele>1296.82</ele>
        <time>2000-01-30T15:35:35.000+01:00</time>
      </trkpt>
      <trkpt lat="45.29247" lon="5.76836">
        <ele>1296.82</ele>
        <time>2000-01-30T15:35:41.000+01:00</time>
      </trkpt>
      <trkpt lat="45.29247" lon="5.76836">
        <ele>1296.82</ele>
        <time>2000-01-30T15:35:47.000+01:00</time>
      </trkpt>
      <trkpt lat="45.29247" lon="5.76836">
        <ele>1296.82</ele>
        <time>2000-01-30T15:35:53.000+01:00</time>
      </trkpt>
      <trkpt lat="45.29247" lon="5.76836">
        <ele>1296.82</ele>
        <time>2000-01-30T15:35:59.000+01:00</time>
      </trkpt>
      <trkpt lat="45.29247" lon="5.76836">
        <ele>1296.82</ele>
        <time>2000-01-30T15:36:05.000+01:00</time>
      </trkpt>
      <trkpt lat="45.29189" lon="5.76824">
        <ele>1296.55</ele>
        <time>2000-01-30T15:36:11.000+01:00</time>
      </trkpt>
      <trkpt lat="45.29189" lon="5.76824">
        <ele>1296.55</ele>
        <time>2000-01-30T15:36:17.000+01:00</time>
      </trkpt>
      <trkpt lat="45.29186" lon="5.76808">
        <ele>1282.36</ele>
        <time>2000-01-30T15:36:23.000+01:00</time>
      </trkpt>
      <trkpt lat="45.29187" lon="5.76799">
        <ele>1278.52</ele>
        <time>2000-01-30T15:36:29.000+01:00</time>
      </trkpt>
      <trkpt lat="45.29187" lon="5.76799">
        <ele>1278.52</ele>
        <time>2000-01-30T15:36:35.000+01:00</time>
      </trkpt>
      <trkpt lat="45.29187" lon="5.76799">
        <ele>1278.52</ele>
        <time>2000-01-30T15:36:41.000+01:00</time>
      </trkpt>
      <trkpt lat="45.29187" lon="5.76799">
        <ele>1278.52</ele>
        <time>2000-01-30T15:36:47.000+01:00</time>
      </trkpt>
      <trkpt lat="45.29187" lon="5.76799">
        <ele>1278.52</ele>
        <time>2000-01-30T15:36:53.000+01:00</time>
      </trkpt>
      <trkpt lat="45.29187" lon="5.76799">
        <ele>1278.52</ele>
        <time>2000-01-30T15:36:59.000+01:00</time>
      </trkpt>
      <trkpt lat="45.29187" lon="5.76799">
        <ele>1278.52</ele>
        <time>2000-01-30T15:37:05.000+01:00</time>
      </trkpt>
      <trkpt lat="45.29187" lon="5.76799">
        <ele>1278.52</ele>
        <time>2000-01-30T15:37:11.000+01:00</time>
      </trkpt>
      <trkpt lat="45.29186" lon="5.76761">
        <ele>1296.68</ele>
        <time>2000-01-30T15:37:17.000+01:00</time>
      </trkpt>
      <trkpt lat="45.29192" lon="5.76756">
        <ele>1297.74</ele>
        <time>2000-01-30T15:37:22.000+01:00</time>
      </trkpt>
      <trkpt lat="45.29195" lon="5.76752">
        <ele>1302.52</ele>
        <time>2000-01-30T15:37:28.000+01:00</time>
      </trkpt>
      <trkpt lat="45.29205" lon="5.76751">
        <ele>1304.8</ele>
        <time>2000-01-30T15:37:34.000+01:00</time>
      </trkpt>
      <trkpt lat="45.29205" lon="5.76751">
        <ele>1304.7</ele>
        <time>2000-01-30T15:37:40.001+01:00</time>
      </trkpt>
      <trkpt lat="45.29205" lon="5.76751">
        <ele>1304.7</ele>
        <time>2000-01-30T15:37:45.000+01:00</time>
      </trkpt>
      <trkpt lat="45.29205" lon="5.76751">
        <ele>1304.7</ele>
        <time>2000-01-30T15:37:51.000+01:00</time>
      </trkpt>
      <trkpt lat="45.29205" lon="5.76751">
        <ele>1304.7</ele>
        <time>2000-01-30T15:37:57.000+01:00</time>
      </trkpt>
      <trkpt lat="45.29205" lon="5.76751">
        <ele>1304.7</ele>
        <time>2000-01-30T15:38:03.000+01:00</time>
      </trkpt>
      <trkpt lat="45.29205" lon="5.76751">
        <ele>1304.7</ele>
        <time>2000-01-30T15:38:09.000+01:00</time>
      </trkpt>
      <trkpt lat="45.29205" lon="5.76751">
        <ele>1304.7</ele>
        <time>2000-01-30T15:38:15.002+01:00</time>
      </trkpt>
      <trkpt lat="45.29207" lon="5.76738">
        <ele>1318.88</ele>
        <time>2000-01-30T15:38:20.000+01:00</time>
      </trkpt>
      <trkpt lat="45.29204" lon="5.76732">
        <ele>1309.81</ele>
        <time>2000-01-30T15:38:26.000+01:00</time>
      </trkpt>
      <trkpt lat="45.29199" lon="5.76727">
        <ele>1312.58</ele>
        <time>2000-01-30T15:38:32.000+01:00</time>
      </trkpt>
      <trkpt lat="45.29192" lon="5.76719">
        <ele>1311.61</ele>
        <time>2000-01-30T15:38:38.000+01:00</time>
      </trkpt>
      <trkpt lat="45.29181" lon="5.76713">
        <ele>1303.9</ele>
        <time>2000-01-30T15:38:44.000+01:00</time>
      </trkpt>
      <trkpt lat="45.29174" lon="5.76712">
        <ele>1306.56</ele>
        <time>2000-01-30T15:38:50.000+01:00</time>
      </trkpt>
      <trkpt lat="45.29167" lon="5.76713">
        <ele>1308.95</ele>
        <time>2000-01-30T15:38:56.000+01:00</time>
      </trkpt>
      <trkpt lat="45.29157" lon="5.7671">
        <ele>1308.64</ele>
        <time>2000-01-30T15:39:02.000+01:00</time>
      </trkpt>
      <trkpt lat="45.29148" lon="5.76706">
        <ele>1305.86</ele>
        <time>2000-01-30T15:39:08.000+01:00</time>
      </trkpt>
      <trkpt lat="45.29142" lon="5.76707">
        <ele>1307.47</ele>
        <time>2000-01-30T15:39:14.000+01:00</time>
      </trkpt>
      <trkpt lat="45.29137" lon="5.7671">
        <ele>1317.08</ele>
        <time>2000-01-30T15:39:20.000+01:00</time>
      </trkpt>
      <trkpt lat="45.29137" lon="5.7671">
        <ele>1317.08</ele>
        <time>2000-01-30T15:39:26.000+01:00</time>
      </trkpt>
      <trkpt lat="45.29137" lon="5.7671">
        <ele>1317.08</ele>
        <time>2000-01-30T15:39:32.000+01:00</time>
      </trkpt>
      <trkpt lat="45.29137" lon="5.7671">
        <ele>1317.08</ele>
        <time>2000-01-30T15:39:38.000+01:00</time>
      </trkpt>
      <trkpt lat="45.29137" lon="5.7671">
        <ele>1317.08</ele>
        <time>2000-01-30T15:39:43.000+01:00</time>
      </trkpt>
      <trkpt lat="45.29137" lon="5.7671">
        <ele>1317.08</ele>
        <time>2000-01-30T15:39:49.000+01:00</time>
      </trkpt>
      <trkpt lat="45.29137" lon="5.7671">
        <ele>1317.08</ele>
        <time>2000-01-30T15:39:55.001+01:00</time>
      </trkpt>
      <trkpt lat="45.29137" lon="5.7671">
        <ele>1317.08</ele>
        <time>2000-01-30T15:40:00.000+01:00</time>
      </trkpt>
      <trkpt lat="45.29137" lon="5.7671">
        <ele>1317.08</ele>
        <time>2000-01-30T15:40:06.000+01:00</time>
      </trkpt>
      <trkpt lat="45.29137" lon="5.7671">
        <ele>1317.08</ele>
        <time>2000-01-30T15:40:12.000+01:00</time>
      </trkpt>
      <trkpt lat="45.29137" lon="5.7671">
        <ele>1317.08</ele>
        <time>2000-01-30T15:40:18.000+01:00</time>
      </trkpt>
      <trkpt lat="45.29137" lon="5.7671">
        <ele>1317.08</ele>
        <time>2000-01-30T15:40:24.000+01:00</time>
      </trkpt>
      <trkpt lat="45.29137" lon="5.7671">
        <ele>1317.08</ele>
        <time>2000-01-30T15:40:30.000+01:00</time>
      </trkpt>
      <trkpt lat="45.29137" lon="5.7671">
        <ele>1317.08</ele>
        <time>2000-01-30T15:40:36.000+01:00</time>
      </trkpt>
    </trkseg>
  </trk>
</gpx>